<?xml version="1.0" encoding="UTF-8" standalone="no" ?>
<gpx xmlns="http://www.topografix.com/GPX/1/1" xmlns:xsi="http://www.w3.org/2001/XMLSchema-instance" xsi:schemaLocation="http://www.topografix.com/GPX/1/1 http://www.topografix.com/GPX/1/1/gpx.xsd" version="1.1" creator="VisuGPX - https://www.visugpx.com">
  <metadata>
    <name>Rhone Croix Rousse Fourvière Saone</name>
    <desc><![CDATA[Une agréable alternance de montées et de descentes après une mise en jambes en bord de Rhône.]]></desc>
  </metadata>
  <trk>
    <name><![CDATA[Sequence 1]]></name>
    <trkseg>
      <trkpt lat="45.75366" lon="4.82935">
        <ele>232</ele>
        <time>2016-09-26T05:18:19Z</time>
      </trkpt>
      <trkpt lat="45.75371" lon="4.82952">
        <ele>211</ele>
        <time>2016-09-26T05:18:29Z</time>
      </trkpt>
      <trkpt lat="45.75372" lon="4.82951">
        <ele>213</ele>
        <time>2016-09-26T05:18:33Z</time>
      </trkpt>
      <trkpt lat="45.75373" lon="4.82955">
        <ele>205</ele>
        <time>2016-09-26T05:18:44Z</time>
      </trkpt>
      <trkpt lat="45.75464" lon="4.83027">
        <ele>183</ele>
        <time>2016-09-26T05:19:19Z</time>
      </trkpt>
      <trkpt lat="45.75471" lon="4.83046">
        <ele>194</ele>
        <time>2016-09-26T05:19:31Z</time>
      </trkpt>
      <trkpt lat="45.75452" lon="4.83078">
        <ele>182</ele>
        <time>2016-09-26T05:19:44Z</time>
      </trkpt>
      <trkpt lat="45.75433" lon="4.83114">
        <ele>180</ele>
        <time>2016-09-26T05:19:59Z</time>
      </trkpt>
      <trkpt lat="45.75411" lon="4.83178">
        <ele>184</ele>
        <time>2016-09-26T05:20:34Z</time>
      </trkpt>
      <trkpt lat="45.75393" lon="4.83213">
        <ele>182</ele>
        <time>2016-09-26T05:20:48Z</time>
      </trkpt>
      <trkpt lat="45.75388" lon="4.83228">
        <ele>184</ele>
        <time>2016-09-26T05:20:57Z</time>
      </trkpt>
      <trkpt lat="45.75387" lon="4.83232">
        <ele>182</ele>
        <time>2016-09-26T05:21:00Z</time>
      </trkpt>
      <trkpt lat="45.75354" lon="4.83273">
        <ele>177</ele>
        <time>2016-09-26T05:21:22Z</time>
      </trkpt>
      <trkpt lat="45.75347" lon="4.83296">
        <ele>173</ele>
        <time>2016-09-26T05:21:31Z</time>
      </trkpt>
      <trkpt lat="45.75342" lon="4.83318">
        <ele>179</ele>
        <time>2016-09-26T05:21:41Z</time>
      </trkpt>
      <trkpt lat="45.75342" lon="4.83328">
        <ele>180</ele>
        <time>2016-09-26T05:21:48Z</time>
      </trkpt>
      <trkpt lat="45.75334" lon="4.83367">
        <ele>179</ele>
        <time>2016-09-26T05:22:05Z</time>
      </trkpt>
      <trkpt lat="45.75329" lon="4.83372">
        <ele>179</ele>
        <time>2016-09-26T05:22:09Z</time>
      </trkpt>
      <trkpt lat="45.75314" lon="4.83405">
        <ele>176</ele>
        <time>2016-09-26T05:22:25Z</time>
      </trkpt>
      <trkpt lat="45.75311" lon="4.83413">
        <ele>175</ele>
        <time>2016-09-26T05:22:29Z</time>
      </trkpt>
      <trkpt lat="45.75304" lon="4.83437">
        <ele>175</ele>
        <time>2016-09-26T05:22:40Z</time>
      </trkpt>
      <trkpt lat="45.7529" lon="4.83457">
        <ele>174</ele>
        <time>2016-09-26T05:22:51Z</time>
      </trkpt>
      <trkpt lat="45.75274" lon="4.83499">
        <ele>175</ele>
        <time>2016-09-26T05:23:11Z</time>
      </trkpt>
      <trkpt lat="45.7527" lon="4.8351">
        <ele>175</ele>
        <time>2016-09-26T05:23:16Z</time>
      </trkpt>
      <trkpt lat="45.75259" lon="4.83535">
        <ele>177</ele>
        <time>2016-09-26T05:23:29Z</time>
      </trkpt>
      <trkpt lat="45.75253" lon="4.83556">
        <ele>179</ele>
        <time>2016-09-26T05:23:38Z</time>
      </trkpt>
      <trkpt lat="45.75239" lon="4.83597">
        <ele>181</ele>
        <time>2016-09-26T05:23:56Z</time>
      </trkpt>
      <trkpt lat="45.75238" lon="4.836">
        <ele>180</ele>
        <time>2016-09-26T05:23:57Z</time>
      </trkpt>
      <trkpt lat="45.75219" lon="4.83645">
        <ele>179</ele>
        <time>2016-09-26T05:24:18Z</time>
      </trkpt>
      <trkpt lat="45.75218" lon="4.83647">
        <ele>178</ele>
        <time>2016-09-26T05:24:19Z</time>
      </trkpt>
      <trkpt lat="45.75208" lon="4.83669">
        <ele>177</ele>
        <time>2016-09-26T05:24:30Z</time>
      </trkpt>
      <trkpt lat="45.75203" lon="4.83693">
        <ele>175</ele>
        <time>2016-09-26T05:24:41Z</time>
      </trkpt>
      <trkpt lat="45.75235" lon="4.8371">
        <ele>173</ele>
        <time>2016-09-26T05:24:59Z</time>
      </trkpt>
      <trkpt lat="45.75233" lon="4.83698">
        <ele>172</ele>
        <time>2016-09-26T05:25:05Z</time>
      </trkpt>
      <trkpt lat="45.75235" lon="4.83666">
        <ele>165</ele>
        <time>2016-09-26T05:25:24Z</time>
      </trkpt>
      <trkpt lat="45.75245" lon="4.83664">
        <ele>166</ele>
        <time>2016-09-26T05:25:29Z</time>
      </trkpt>
      <trkpt lat="45.75263" lon="4.83666">
        <ele>168</ele>
        <time>2016-09-26T05:25:40Z</time>
      </trkpt>
      <trkpt lat="45.75287" lon="4.8369">
        <ele>165</ele>
        <time>2016-09-26T05:25:56Z</time>
      </trkpt>
      <trkpt lat="45.75291" lon="4.83693">
        <ele>165</ele>
        <time>2016-09-26T05:25:59Z</time>
      </trkpt>
      <trkpt lat="45.75305" lon="4.83704">
        <ele>165</ele>
        <time>2016-09-26T05:26:09Z</time>
      </trkpt>
      <trkpt lat="45.75329" lon="4.83723">
        <ele>168</ele>
        <time>2016-09-26T05:26:24Z</time>
      </trkpt>
      <trkpt lat="45.75341" lon="4.83734">
        <ele>167</ele>
        <time>2016-09-26T05:26:32Z</time>
      </trkpt>
      <trkpt lat="45.75355" lon="4.83744">
        <ele>167</ele>
        <time>2016-09-26T05:26:42Z</time>
      </trkpt>
      <trkpt lat="45.75377" lon="4.83765">
        <ele>167</ele>
        <time>2016-09-26T05:26:57Z</time>
      </trkpt>
      <trkpt lat="45.75399" lon="4.83781">
        <ele>167</ele>
        <time>2016-09-26T05:27:12Z</time>
      </trkpt>
      <trkpt lat="45.75403" lon="4.83784">
        <ele>170</ele>
        <time>2016-09-26T05:27:15Z</time>
      </trkpt>
      <trkpt lat="45.7542" lon="4.83792">
        <ele>171</ele>
        <time>2016-09-26T05:27:26Z</time>
      </trkpt>
      <trkpt lat="45.75448" lon="4.83816">
        <ele>166</ele>
        <time>2016-09-26T05:27:46Z</time>
      </trkpt>
      <trkpt lat="45.75451" lon="4.83818">
        <ele>165</ele>
        <time>2016-09-26T05:27:48Z</time>
      </trkpt>
      <trkpt lat="45.75468" lon="4.83828">
        <ele>164</ele>
        <time>2016-09-26T05:27:59Z</time>
      </trkpt>
      <trkpt lat="45.75493" lon="4.83846">
        <ele>167</ele>
        <time>2016-09-26T05:28:14Z</time>
      </trkpt>
      <trkpt lat="45.75517" lon="4.83859">
        <ele>164</ele>
        <time>2016-09-26T05:28:29Z</time>
      </trkpt>
      <trkpt lat="45.75523" lon="4.83863">
        <ele>164</ele>
        <time>2016-09-26T05:28:33Z</time>
      </trkpt>
      <trkpt lat="45.75539" lon="4.83873">
        <ele>169</ele>
        <time>2016-09-26T05:28:43Z</time>
      </trkpt>
      <trkpt lat="45.75556" lon="4.83889">
        <ele>167</ele>
        <time>2016-09-26T05:28:54Z</time>
      </trkpt>
      <trkpt lat="45.7558" lon="4.83906">
        <ele>168</ele>
        <time>2016-09-26T05:29:10Z</time>
      </trkpt>
      <trkpt lat="45.75589" lon="4.83913">
        <ele>165</ele>
        <time>2016-09-26T05:29:16Z</time>
      </trkpt>
      <trkpt lat="45.75609" lon="4.83921">
        <ele>167</ele>
        <time>2016-09-26T05:29:27Z</time>
      </trkpt>
      <trkpt lat="45.75633" lon="4.83936">
        <ele>168</ele>
        <time>2016-09-26T05:29:44Z</time>
      </trkpt>
      <trkpt lat="45.75639" lon="4.83937">
        <ele>168</ele>
        <time>2016-09-26T05:29:49Z</time>
      </trkpt>
      <trkpt lat="45.75676" lon="4.83952">
        <ele>173</ele>
        <time>2016-09-26T05:30:10Z</time>
      </trkpt>
      <trkpt lat="45.75684" lon="4.83956">
        <ele>173</ele>
        <time>2016-09-26T05:30:14Z</time>
      </trkpt>
      <trkpt lat="45.75709" lon="4.83972">
        <ele>170</ele>
        <time>2016-09-26T05:30:31Z</time>
      </trkpt>
      <trkpt lat="45.75717" lon="4.83978">
        <ele>170</ele>
        <time>2016-09-26T05:30:38Z</time>
      </trkpt>
      <trkpt lat="45.75745" lon="4.83989">
        <ele>169</ele>
        <time>2016-09-26T05:30:54Z</time>
      </trkpt>
      <trkpt lat="45.75748" lon="4.83991">
        <ele>169</ele>
        <time>2016-09-26T05:30:56Z</time>
      </trkpt>
      <trkpt lat="45.75768" lon="4.83997">
        <ele>168</ele>
        <time>2016-09-26T05:31:08Z</time>
      </trkpt>
      <trkpt lat="45.75789" lon="4.84007">
        <ele>164</ele>
        <time>2016-09-26T05:31:21Z</time>
      </trkpt>
      <trkpt lat="45.75799" lon="4.84009">
        <ele>163</ele>
        <time>2016-09-26T05:31:28Z</time>
      </trkpt>
      <trkpt lat="45.75817" lon="4.84013">
        <ele>166</ele>
        <time>2016-09-26T05:31:39Z</time>
      </trkpt>
      <trkpt lat="45.75836" lon="4.84018">
        <ele>164</ele>
        <time>2016-09-26T05:31:50Z</time>
      </trkpt>
      <trkpt lat="45.75867" lon="4.84022">
        <ele>161</ele>
        <time>2016-09-26T05:32:08Z</time>
      </trkpt>
      <trkpt lat="45.75876" lon="4.84023">
        <ele>162</ele>
        <time>2016-09-26T05:32:13Z</time>
      </trkpt>
      <trkpt lat="45.75892" lon="4.84025">
        <ele>162</ele>
        <time>2016-09-26T05:32:23Z</time>
      </trkpt>
      <trkpt lat="45.75924" lon="4.84025">
        <ele>169</ele>
        <time>2016-09-26T05:32:42Z</time>
      </trkpt>
      <trkpt lat="45.75935" lon="4.84028">
        <ele>168</ele>
        <time>2016-09-26T05:32:50Z</time>
      </trkpt>
      <trkpt lat="45.75945" lon="4.84028">
        <ele>172</ele>
        <time>2016-09-26T05:32:56Z</time>
      </trkpt>
      <trkpt lat="45.75972" lon="4.84029">
        <ele>174</ele>
        <time>2016-09-26T05:33:13Z</time>
      </trkpt>
      <trkpt lat="45.7598" lon="4.8403">
        <ele>170</ele>
        <time>2016-09-26T05:33:19Z</time>
      </trkpt>
      <trkpt lat="45.76017" lon="4.84035">
        <ele>162</ele>
        <time>2016-09-26T05:33:41Z</time>
      </trkpt>
      <trkpt lat="45.76034" lon="4.84041">
        <ele>165</ele>
        <time>2016-09-26T05:33:51Z</time>
      </trkpt>
      <trkpt lat="45.76048" lon="4.84044">
        <ele>164</ele>
        <time>2016-09-26T05:33:59Z</time>
      </trkpt>
      <trkpt lat="45.76072" lon="4.84048">
        <ele>165</ele>
        <time>2016-09-26T05:34:13Z</time>
      </trkpt>
      <trkpt lat="45.7608" lon="4.84049">
        <ele>164</ele>
        <time>2016-09-26T05:34:18Z</time>
      </trkpt>
      <trkpt lat="45.76094" lon="4.8405">
        <ele>165</ele>
        <time>2016-09-26T05:34:26Z</time>
      </trkpt>
      <trkpt lat="45.76128" lon="4.84057">
        <ele>165</ele>
        <time>2016-09-26T05:34:47Z</time>
      </trkpt>
      <trkpt lat="45.76129" lon="4.84057">
        <ele>164</ele>
        <time>2016-09-26T05:34:48Z</time>
      </trkpt>
      <trkpt lat="45.76154" lon="4.84061">
        <ele>162</ele>
        <time>2016-09-26T05:35:03Z</time>
      </trkpt>
      <trkpt lat="45.76175" lon="4.84062">
        <ele>165</ele>
        <time>2016-09-26T05:35:14Z</time>
      </trkpt>
      <trkpt lat="45.76201" lon="4.84062">
        <ele>166</ele>
        <time>2016-09-26T05:35:30Z</time>
      </trkpt>
      <trkpt lat="45.76219" lon="4.84062">
        <ele>165</ele>
        <time>2016-09-26T05:35:40Z</time>
      </trkpt>
      <trkpt lat="45.76223" lon="4.84062">
        <ele>166</ele>
        <time>2016-09-26T05:35:43Z</time>
      </trkpt>
      <trkpt lat="45.76251" lon="4.84072">
        <ele>165</ele>
        <time>2016-09-26T05:35:59Z</time>
      </trkpt>
      <trkpt lat="45.76261" lon="4.84071">
        <ele>165</ele>
        <time>2016-09-26T05:36:05Z</time>
      </trkpt>
      <trkpt lat="45.76294" lon="4.84077">
        <ele>159</ele>
        <time>2016-09-26T05:36:25Z</time>
      </trkpt>
      <trkpt lat="45.76297" lon="4.84079">
        <ele>158</ele>
        <time>2016-09-26T05:36:27Z</time>
      </trkpt>
      <trkpt lat="45.76326" lon="4.84088">
        <ele>158</ele>
        <time>2016-09-26T05:36:43Z</time>
      </trkpt>
      <trkpt lat="45.76346" lon="4.84089">
        <ele>160</ele>
        <time>2016-09-26T05:36:56Z</time>
      </trkpt>
      <trkpt lat="45.76351" lon="4.8409">
        <ele>158</ele>
        <time>2016-09-26T05:37:00Z</time>
      </trkpt>
      <trkpt lat="45.76372" lon="4.84089">
        <ele>154</ele>
        <time>2016-09-26T05:37:15Z</time>
      </trkpt>
      <trkpt lat="45.76392" lon="4.84091">
        <ele>161</ele>
        <time>2016-09-26T05:37:26Z</time>
      </trkpt>
      <trkpt lat="45.7642" lon="4.8409">
        <ele>167</ele>
        <time>2016-09-26T05:37:41Z</time>
      </trkpt>
      <trkpt lat="45.76425" lon="4.84088">
        <ele>168</ele>
        <time>2016-09-26T05:37:44Z</time>
      </trkpt>
      <trkpt lat="45.76443" lon="4.84088">
        <ele>169</ele>
        <time>2016-09-26T05:37:55Z</time>
      </trkpt>
      <trkpt lat="45.76472" lon="4.84087">
        <ele>164</ele>
        <time>2016-09-26T05:38:13Z</time>
      </trkpt>
      <trkpt lat="45.76479" lon="4.84088">
        <ele>164</ele>
        <time>2016-09-26T05:38:17Z</time>
      </trkpt>
      <trkpt lat="45.76501" lon="4.84092">
        <ele>167</ele>
        <time>2016-09-26T05:38:29Z</time>
      </trkpt>
      <trkpt lat="45.76538" lon="4.84092">
        <ele>168</ele>
        <time>2016-09-26T05:38:50Z</time>
      </trkpt>
      <trkpt lat="45.7654" lon="4.84091">
        <ele>169</ele>
        <time>2016-09-26T05:38:51Z</time>
      </trkpt>
      <trkpt lat="45.76559" lon="4.84094">
        <ele>167</ele>
        <time>2016-09-26T05:39:02Z</time>
      </trkpt>
      <trkpt lat="45.76592" lon="4.84095">
        <ele>163</ele>
        <time>2016-09-26T05:39:20Z</time>
      </trkpt>
      <trkpt lat="45.76598" lon="4.84093">
        <ele>165</ele>
        <time>2016-09-26T05:39:24Z</time>
      </trkpt>
      <trkpt lat="45.76619" lon="4.84087">
        <ele>164</ele>
        <time>2016-09-26T05:39:35Z</time>
      </trkpt>
      <trkpt lat="45.76653" lon="4.84084">
        <ele>162</ele>
        <time>2016-09-26T05:39:55Z</time>
      </trkpt>
      <trkpt lat="45.76655" lon="4.84082">
        <ele>163</ele>
        <time>2016-09-26T05:39:57Z</time>
      </trkpt>
      <trkpt lat="45.76679" lon="4.84077">
        <ele>163</ele>
        <time>2016-09-26T05:40:14Z</time>
      </trkpt>
      <trkpt lat="45.76691" lon="4.84076">
        <ele>164</ele>
        <time>2016-09-26T05:40:21Z</time>
      </trkpt>
      <trkpt lat="45.76705" lon="4.84072">
        <ele>165</ele>
        <time>2016-09-26T05:40:31Z</time>
      </trkpt>
      <trkpt lat="45.76721" lon="4.84067">
        <ele>167</ele>
        <time>2016-09-26T05:40:42Z</time>
      </trkpt>
      <trkpt lat="45.76741" lon="4.84065">
        <ele>169</ele>
        <time>2016-09-26T05:40:53Z</time>
      </trkpt>
      <trkpt lat="45.76775" lon="4.84061">
        <ele>173</ele>
        <time>2016-09-26T05:41:12Z</time>
      </trkpt>
      <trkpt lat="45.76779" lon="4.84061">
        <ele>170</ele>
        <time>2016-09-26T05:41:15Z</time>
      </trkpt>
      <trkpt lat="45.76795" lon="4.84066">
        <ele>167</ele>
        <time>2016-09-26T05:41:28Z</time>
      </trkpt>
      <trkpt lat="45.76813" lon="4.84065">
        <ele>168</ele>
        <time>2016-09-26T05:41:37Z</time>
      </trkpt>
      <trkpt lat="45.76845" lon="4.8406">
        <ele>171</ele>
        <time>2016-09-26T05:41:55Z</time>
      </trkpt>
      <trkpt lat="45.76851" lon="4.84058">
        <ele>168</ele>
        <time>2016-09-26T05:41:58Z</time>
      </trkpt>
      <trkpt lat="45.7689" lon="4.84068">
        <ele>165</ele>
        <time>2016-09-26T05:42:19Z</time>
      </trkpt>
      <trkpt lat="45.76891" lon="4.84067">
        <ele>166</ele>
        <time>2016-09-26T05:42:20Z</time>
      </trkpt>
      <trkpt lat="45.76901" lon="4.84057">
        <ele>169</ele>
        <time>2016-09-26T05:42:31Z</time>
      </trkpt>
      <trkpt lat="45.76929" lon="4.84055">
        <ele>174</ele>
        <time>2016-09-26T05:42:46Z</time>
      </trkpt>
      <trkpt lat="45.76946" lon="4.84056">
        <ele>172</ele>
        <time>2016-09-26T05:42:54Z</time>
      </trkpt>
      <trkpt lat="45.76969" lon="4.84053">
        <ele>172</ele>
        <time>2016-09-26T05:43:09Z</time>
      </trkpt>
      <trkpt lat="45.76979" lon="4.84059">
        <ele>167</ele>
        <time>2016-09-26T05:43:16Z</time>
      </trkpt>
      <trkpt lat="45.7701" lon="4.84061">
        <ele>170</ele>
        <time>2016-09-26T05:43:30Z</time>
      </trkpt>
      <trkpt lat="45.77016" lon="4.84057">
        <ele>169</ele>
        <time>2016-09-26T05:43:40Z</time>
      </trkpt>
      <trkpt lat="45.77025" lon="4.84053">
        <ele>168</ele>
        <time>2016-09-26T05:43:49Z</time>
      </trkpt>
      <trkpt lat="45.77049" lon="4.84059">
        <ele>173</ele>
        <time>2016-09-26T05:44:00Z</time>
      </trkpt>
      <trkpt lat="45.77086" lon="4.84058">
        <ele>171</ele>
        <time>2016-09-26T05:44:21Z</time>
      </trkpt>
      <trkpt lat="45.77088" lon="4.84058">
        <ele>169</ele>
        <time>2016-09-26T05:44:22Z</time>
      </trkpt>
      <trkpt lat="45.77129" lon="4.84057">
        <ele>168</ele>
        <time>2016-09-26T05:44:43Z</time>
      </trkpt>
      <trkpt lat="45.77132" lon="4.84058">
        <ele>168</ele>
        <time>2016-09-26T05:44:45Z</time>
      </trkpt>
      <trkpt lat="45.77146" lon="4.84059">
        <ele>172</ele>
        <time>2016-09-26T05:44:55Z</time>
      </trkpt>
      <trkpt lat="45.77174" lon="4.84064">
        <ele>171</ele>
        <time>2016-09-26T05:45:11Z</time>
      </trkpt>
      <trkpt lat="45.77202" lon="4.84068">
        <ele>169</ele>
        <time>2016-09-26T05:45:26Z</time>
      </trkpt>
      <trkpt lat="45.77208" lon="4.84067">
        <ele>167</ele>
        <time>2016-09-26T05:45:29Z</time>
      </trkpt>
      <trkpt lat="45.77218" lon="4.84068">
        <ele>165</ele>
        <time>2016-09-26T05:45:39Z</time>
      </trkpt>
      <trkpt lat="45.77275" lon="4.84081">
        <ele>165</ele>
        <time>2016-09-26T05:46:16Z</time>
      </trkpt>
      <trkpt lat="45.77294" lon="4.84089">
        <ele>162</ele>
        <time>2016-09-26T05:46:28Z</time>
      </trkpt>
      <trkpt lat="45.77299" lon="4.8409">
        <ele>163</ele>
        <time>2016-09-26T05:46:32Z</time>
      </trkpt>
      <trkpt lat="45.77321" lon="4.84105">
        <ele>165</ele>
        <time>2016-09-26T05:46:44Z</time>
      </trkpt>
      <trkpt lat="45.77334" lon="4.84113">
        <ele>165</ele>
        <time>2016-09-26T05:46:51Z</time>
      </trkpt>
      <trkpt lat="45.77354" lon="4.84123">
        <ele>167</ele>
        <time>2016-09-26T05:47:02Z</time>
      </trkpt>
      <trkpt lat="45.77372" lon="4.84142">
        <ele>161</ele>
        <time>2016-09-26T05:47:21Z</time>
      </trkpt>
      <trkpt lat="45.77391" lon="4.84157">
        <ele>163</ele>
        <time>2016-09-26T05:47:32Z</time>
      </trkpt>
      <trkpt lat="45.77399" lon="4.84162">
        <ele>162</ele>
        <time>2016-09-26T05:47:38Z</time>
      </trkpt>
      <trkpt lat="45.77426" lon="4.84176">
        <ele>166</ele>
        <time>2016-09-26T05:47:53Z</time>
      </trkpt>
      <trkpt lat="45.77434" lon="4.84185">
        <ele>166</ele>
        <time>2016-09-26T05:48:00Z</time>
      </trkpt>
      <trkpt lat="45.77446" lon="4.84196">
        <ele>168</ele>
        <time>2016-09-26T05:48:12Z</time>
      </trkpt>
      <trkpt lat="45.7746" lon="4.84203">
        <ele>167</ele>
        <time>2016-09-26T05:48:19Z</time>
      </trkpt>
      <trkpt lat="45.77495" lon="4.84221">
        <ele>166</ele>
        <time>2016-09-26T05:48:39Z</time>
      </trkpt>
      <trkpt lat="45.77496" lon="4.84222">
        <ele>166</ele>
        <time>2016-09-26T05:48:42Z</time>
      </trkpt>
      <trkpt lat="45.775" lon="4.84224">
        <ele>166</ele>
        <time>2016-09-26T05:48:52Z</time>
      </trkpt>
      <trkpt lat="45.77523" lon="4.84244">
        <ele>164</ele>
        <time>2016-09-26T05:49:03Z</time>
      </trkpt>
      <trkpt lat="45.77542" lon="4.84259">
        <ele>167</ele>
        <time>2016-09-26T05:49:14Z</time>
      </trkpt>
      <trkpt lat="45.7756" lon="4.84272">
        <ele>169</ele>
        <time>2016-09-26T05:49:29Z</time>
      </trkpt>
      <trkpt lat="45.77593" lon="4.84289">
        <ele>175</ele>
        <time>2016-09-26T05:49:43Z</time>
      </trkpt>
      <trkpt lat="45.776" lon="4.84294">
        <ele>170</ele>
        <time>2016-09-26T05:49:47Z</time>
      </trkpt>
      <trkpt lat="45.77619" lon="4.84303">
        <ele>173</ele>
        <time>2016-09-26T05:50:00Z</time>
      </trkpt>
      <trkpt lat="45.77633" lon="4.84313">
        <ele>171</ele>
        <time>2016-09-26T05:50:09Z</time>
      </trkpt>
      <trkpt lat="45.77647" lon="4.84327">
        <ele>168</ele>
        <time>2016-09-26T05:50:20Z</time>
      </trkpt>
      <trkpt lat="45.77686" lon="4.84347">
        <ele>170</ele>
        <time>2016-09-26T05:50:38Z</time>
      </trkpt>
      <trkpt lat="45.77696" lon="4.84356">
        <ele>173</ele>
        <time>2016-09-26T05:50:42Z</time>
      </trkpt>
      <trkpt lat="45.77716" lon="4.84368">
        <ele>175</ele>
        <time>2016-09-26T05:51:00Z</time>
      </trkpt>
      <trkpt lat="45.77726" lon="4.84373">
        <ele>173</ele>
        <time>2016-09-26T05:51:10Z</time>
      </trkpt>
      <trkpt lat="45.77736" lon="4.84379">
        <ele>170</ele>
        <time>2016-09-26T05:51:17Z</time>
      </trkpt>
      <trkpt lat="45.77758" lon="4.8439">
        <ele>174</ele>
        <time>2016-09-26T05:51:28Z</time>
      </trkpt>
      <trkpt lat="45.77741" lon="4.84384">
        <ele>172</ele>
        <time>2016-09-26T05:51:46Z</time>
      </trkpt>
      <trkpt lat="45.77732" lon="4.84384">
        <ele>173</ele>
        <time>2016-09-26T05:51:51Z</time>
      </trkpt>
      <trkpt lat="45.77704" lon="4.84379">
        <ele>171</ele>
        <time>2016-09-26T05:52:02Z</time>
      </trkpt>
      <trkpt lat="45.77673" lon="4.84377">
        <ele>180</ele>
        <time>2016-09-26T05:52:21Z</time>
      </trkpt>
      <trkpt lat="45.77673" lon="4.84381">
        <ele>183</ele>
        <time>2016-09-26T05:52:32Z</time>
      </trkpt>
      <trkpt lat="45.77673" lon="4.84382">
        <ele>182</ele>
        <time>2016-09-26T05:52:35Z</time>
      </trkpt>
      <trkpt lat="45.77663" lon="4.84416">
        <ele>179</ele>
        <time>2016-09-26T05:52:51Z</time>
      </trkpt>
      <trkpt lat="45.77659" lon="4.84413">
        <ele>177</ele>
        <time>2016-09-26T05:53:01Z</time>
      </trkpt>
      <trkpt lat="45.77657" lon="4.84412">
        <ele>177</ele>
        <time>2016-09-26T05:53:13Z</time>
      </trkpt>
      <trkpt lat="45.77676" lon="4.84422">
        <ele>178</ele>
        <time>2016-09-26T05:53:21Z</time>
      </trkpt>
      <trkpt lat="45.77678" lon="4.84444">
        <ele>179</ele>
        <time>2016-09-26T05:53:30Z</time>
      </trkpt>
      <trkpt lat="45.77688" lon="4.84468">
        <ele>178</ele>
        <time>2016-09-26T05:53:40Z</time>
      </trkpt>
      <trkpt lat="45.77729" lon="4.84519">
        <ele>183</ele>
        <time>2016-09-26T05:54:01Z</time>
      </trkpt>
      <trkpt lat="45.77731" lon="4.84524">
        <ele>180</ele>
        <time>2016-09-26T05:54:03Z</time>
      </trkpt>
      <trkpt lat="45.77712" lon="4.84545">
        <ele>175</ele>
        <time>2016-09-26T05:54:13Z</time>
      </trkpt>
      <trkpt lat="45.77678" lon="4.84573">
        <ele>169</ele>
        <time>2016-09-26T05:54:32Z</time>
      </trkpt>
      <trkpt lat="45.77668" lon="4.84593">
        <ele>170</ele>
        <time>2016-09-26T05:54:42Z</time>
      </trkpt>
      <trkpt lat="45.7766" lon="4.84599">
        <ele>169</ele>
        <time>2016-09-26T05:54:46Z</time>
      </trkpt>
      <trkpt lat="45.77651" lon="4.84629">
        <ele>174</ele>
        <time>2016-09-26T05:54:58Z</time>
      </trkpt>
      <trkpt lat="45.77639" lon="4.84656">
        <ele>171</ele>
        <time>2016-09-26T05:55:13Z</time>
      </trkpt>
      <trkpt lat="45.77632" lon="4.84667">
        <ele>171</ele>
        <time>2016-09-26T05:55:21Z</time>
      </trkpt>
      <trkpt lat="45.77614" lon="4.84684">
        <ele>165</ele>
        <time>2016-09-26T05:55:34Z</time>
      </trkpt>
      <trkpt lat="45.77606" lon="4.84698">
        <ele>166</ele>
        <time>2016-09-26T05:55:41Z</time>
      </trkpt>
      <trkpt lat="45.77604" lon="4.84728">
        <ele>172</ele>
        <time>2016-09-26T05:55:56Z</time>
      </trkpt>
      <trkpt lat="45.77591" lon="4.84765">
        <ele>176</ele>
        <time>2016-09-26T05:56:11Z</time>
      </trkpt>
      <trkpt lat="45.77587" lon="4.84779">
        <ele>170</ele>
        <time>2016-09-26T05:56:17Z</time>
      </trkpt>
      <trkpt lat="45.77574" lon="4.84811">
        <ele>171</ele>
        <time>2016-09-26T05:56:31Z</time>
      </trkpt>
      <trkpt lat="45.77563" lon="4.84841">
        <ele>171</ele>
        <time>2016-09-26T05:56:41Z</time>
      </trkpt>
      <trkpt lat="45.77548" lon="4.84852">
        <ele>171</ele>
        <time>2016-09-26T05:56:48Z</time>
      </trkpt>
      <trkpt lat="45.77536" lon="4.84876">
        <ele>168</ele>
        <time>2016-09-26T05:57:01Z</time>
      </trkpt>
      <trkpt lat="45.77548" lon="4.84911">
        <ele>165</ele>
        <time>2016-09-26T05:57:15Z</time>
      </trkpt>
      <trkpt lat="45.77542" lon="4.84928">
        <ele>168</ele>
        <time>2016-09-26T05:57:23Z</time>
      </trkpt>
      <trkpt lat="45.77516" lon="4.84964">
        <ele>174</ele>
        <time>2016-09-26T05:57:42Z</time>
      </trkpt>
      <trkpt lat="45.77516" lon="4.84966">
        <ele>174</ele>
        <time>2016-09-26T05:57:43Z</time>
      </trkpt>
      <trkpt lat="45.77491" lon="4.84999">
        <ele>170</ele>
        <time>2016-09-26T05:58:02Z</time>
      </trkpt>
      <trkpt lat="45.77481" lon="4.85018">
        <ele>170</ele>
        <time>2016-09-26T05:58:11Z</time>
      </trkpt>
      <trkpt lat="45.77468" lon="4.85042">
        <ele>170</ele>
        <time>2016-09-26T05:58:24Z</time>
      </trkpt>
      <trkpt lat="45.77461" lon="4.85077">
        <ele>170</ele>
        <time>2016-09-26T05:58:38Z</time>
      </trkpt>
      <trkpt lat="45.77461" lon="4.85079">
        <ele>170</ele>
        <time>2016-09-26T05:58:39Z</time>
      </trkpt>
      <trkpt lat="45.77452" lon="4.851">
        <ele>174</ele>
        <time>2016-09-26T05:58:50Z</time>
      </trkpt>
      <trkpt lat="45.77423" lon="4.85141">
        <ele>174</ele>
        <time>2016-09-26T05:59:11Z</time>
      </trkpt>
      <trkpt lat="45.77421" lon="4.85143">
        <ele>175</ele>
        <time>2016-09-26T05:59:12Z</time>
      </trkpt>
      <trkpt lat="45.77393" lon="4.8516">
        <ele>171</ele>
        <time>2016-09-26T05:59:32Z</time>
      </trkpt>
      <trkpt lat="45.77388" lon="4.8516">
        <ele>171</ele>
        <time>2016-09-26T05:59:35Z</time>
      </trkpt>
      <trkpt lat="45.77379" lon="4.8516">
        <ele>173</ele>
        <time>2016-09-26T05:59:49Z</time>
      </trkpt>
      <trkpt lat="45.77356" lon="4.85196">
        <ele>176</ele>
        <time>2016-09-26T06:00:05Z</time>
      </trkpt>
      <trkpt lat="45.77353" lon="4.85202">
        <ele>174</ele>
        <time>2016-09-26T06:00:07Z</time>
      </trkpt>
      <trkpt lat="45.77349" lon="4.85237">
        <ele>174</ele>
        <time>2016-09-26T06:00:23Z</time>
      </trkpt>
      <trkpt lat="45.77348" lon="4.85251">
        <ele>172</ele>
        <time>2016-09-26T06:00:29Z</time>
      </trkpt>
      <trkpt lat="45.77337" lon="4.85285">
        <ele>174</ele>
        <time>2016-09-26T06:00:43Z</time>
      </trkpt>
      <trkpt lat="45.77326" lon="4.85307">
        <ele>171</ele>
        <time>2016-09-26T06:00:54Z</time>
      </trkpt>
      <trkpt lat="45.77308" lon="4.8534">
        <ele>171</ele>
        <time>2016-09-26T06:01:11Z</time>
      </trkpt>
      <trkpt lat="45.77307" lon="4.85348">
        <ele>172</ele>
        <time>2016-09-26T06:01:14Z</time>
      </trkpt>
      <trkpt lat="45.77309" lon="4.85372">
        <ele>175</ele>
        <time>2016-09-26T06:01:24Z</time>
      </trkpt>
      <trkpt lat="45.77294" lon="4.85404">
        <ele>168</ele>
        <time>2016-09-26T06:01:42Z</time>
      </trkpt>
      <trkpt lat="45.77296" lon="4.85428">
        <ele>168</ele>
        <time>2016-09-26T06:01:52Z</time>
      </trkpt>
      <trkpt lat="45.77304" lon="4.85435">
        <ele>169</ele>
        <time>2016-09-26T06:01:58Z</time>
      </trkpt>
      <trkpt lat="45.7732" lon="4.85457">
        <ele>165</ele>
        <time>2016-09-26T06:02:14Z</time>
      </trkpt>
      <trkpt lat="45.7733" lon="4.8547">
        <ele>167</ele>
        <time>2016-09-26T06:02:21Z</time>
      </trkpt>
      <trkpt lat="45.77346" lon="4.85485">
        <ele>170</ele>
        <time>2016-09-26T06:02:30Z</time>
      </trkpt>
      <trkpt lat="45.77352" lon="4.85511">
        <ele>167</ele>
        <time>2016-09-26T06:02:44Z</time>
      </trkpt>
      <trkpt lat="45.77349" lon="4.85548">
        <ele>167</ele>
        <time>2016-09-26T06:02:58Z</time>
      </trkpt>
      <trkpt lat="45.77354" lon="4.85592">
        <ele>168</ele>
        <time>2016-09-26T06:03:13Z</time>
      </trkpt>
      <trkpt lat="45.77358" lon="4.85618">
        <ele>170</ele>
        <time>2016-09-26T06:03:23Z</time>
      </trkpt>
      <trkpt lat="45.77358" lon="4.85631">
        <ele>170</ele>
        <time>2016-09-26T06:03:28Z</time>
      </trkpt>
      <trkpt lat="45.77368" lon="4.85649">
        <ele>171</ele>
        <time>2016-09-26T06:03:37Z</time>
      </trkpt>
      <trkpt lat="45.77377" lon="4.85662">
        <ele>164</ele>
        <time>2016-09-26T06:03:51Z</time>
      </trkpt>
      <trkpt lat="45.77383" lon="4.85679">
        <ele>166</ele>
        <time>2016-09-26T06:03:59Z</time>
      </trkpt>
      <trkpt lat="45.7739" lon="4.8572">
        <ele>168</ele>
        <time>2016-09-26T06:04:18Z</time>
      </trkpt>
      <trkpt lat="45.77391" lon="4.8573">
        <ele>165</ele>
        <time>2016-09-26T06:04:21Z</time>
      </trkpt>
      <trkpt lat="45.77403" lon="4.8576">
        <ele>169</ele>
        <time>2016-09-26T06:04:32Z</time>
      </trkpt>
      <trkpt lat="45.77411" lon="4.85794">
        <ele>174</ele>
        <time>2016-09-26T06:04:51Z</time>
      </trkpt>
      <trkpt lat="45.77422" lon="4.85796">
        <ele>172</ele>
        <time>2016-09-26T06:04:57Z</time>
      </trkpt>
      <trkpt lat="45.77441" lon="4.85809">
        <ele>166</ele>
        <time>2016-09-26T06:05:09Z</time>
      </trkpt>
      <trkpt lat="45.77451" lon="4.85812">
        <ele>168</ele>
        <time>2016-09-26T06:05:16Z</time>
      </trkpt>
      <trkpt lat="45.77472" lon="4.85818">
        <ele>170</ele>
        <time>2016-09-26T06:05:27Z</time>
      </trkpt>
      <trkpt lat="45.77496" lon="4.85823">
        <ele>172</ele>
        <time>2016-09-26T06:05:38Z</time>
      </trkpt>
      <trkpt lat="45.77516" lon="4.85824">
        <ele>178</ele>
        <time>2016-09-26T06:05:55Z</time>
      </trkpt>
      <trkpt lat="45.77524" lon="4.85825">
        <ele>179</ele>
        <time>2016-09-26T06:06:00Z</time>
      </trkpt>
      <trkpt lat="45.77553" lon="4.85831">
        <ele>183</ele>
        <time>2016-09-26T06:06:13Z</time>
      </trkpt>
      <trkpt lat="45.77591" lon="4.85831">
        <ele>183</ele>
        <time>2016-09-26T06:06:28Z</time>
      </trkpt>
      <trkpt lat="45.77597" lon="4.85832">
        <ele>183</ele>
        <time>2016-09-26T06:06:33Z</time>
      </trkpt>
      <trkpt lat="45.77619" lon="4.85838">
        <ele>179</ele>
        <time>2016-09-26T06:06:44Z</time>
      </trkpt>
      <trkpt lat="45.77645" lon="4.85841">
        <ele>177</ele>
        <time>2016-09-26T06:07:02Z</time>
      </trkpt>
      <trkpt lat="45.77651" lon="4.85834">
        <ele>178</ele>
        <time>2016-09-26T06:07:11Z</time>
      </trkpt>
      <trkpt lat="45.77667" lon="4.85832">
        <ele>173</ele>
        <time>2016-09-26T06:07:19Z</time>
      </trkpt>
      <trkpt lat="45.77693" lon="4.85836">
        <ele>175</ele>
        <time>2016-09-26T06:07:29Z</time>
      </trkpt>
      <trkpt lat="45.77709" lon="4.85839">
        <ele>171</ele>
        <time>2016-09-26T06:07:40Z</time>
      </trkpt>
      <trkpt lat="45.77719" lon="4.85847">
        <ele>167</ele>
        <time>2016-09-26T06:07:53Z</time>
      </trkpt>
      <trkpt lat="45.77772" lon="4.85851">
        <ele>169</ele>
        <time>2016-09-26T06:08:11Z</time>
      </trkpt>
      <trkpt lat="45.77771" lon="4.8585">
        <ele>161</ele>
        <time>2016-09-26T06:08:18Z</time>
      </trkpt>
      <trkpt lat="45.77774" lon="4.85846">
        <ele>167</ele>
        <time>2016-09-26T06:08:24Z</time>
      </trkpt>
      <trkpt lat="45.77791" lon="4.85834">
        <ele>172</ele>
        <time>2016-09-26T06:08:35Z</time>
      </trkpt>
      <trkpt lat="45.77837" lon="4.85842">
        <ele>177</ele>
        <time>2016-09-26T06:08:54Z</time>
      </trkpt>
      <trkpt lat="45.77842" lon="4.85847">
        <ele>178</ele>
        <time>2016-09-26T06:09:05Z</time>
      </trkpt>
      <trkpt lat="45.77845" lon="4.85847">
        <ele>177</ele>
        <time>2016-09-26T06:09:08Z</time>
      </trkpt>
      <trkpt lat="45.77866" lon="4.85851">
        <ele>180</ele>
        <time>2016-09-26T06:09:19Z</time>
      </trkpt>
      <trkpt lat="45.77894" lon="4.85856">
        <ele>179</ele>
        <time>2016-09-26T06:09:31Z</time>
      </trkpt>
      <trkpt lat="45.77915" lon="4.85858">
        <ele>182</ele>
        <time>2016-09-26T06:09:41Z</time>
      </trkpt>
      <trkpt lat="45.77918" lon="4.85862">
        <ele>176</ele>
        <time>2016-09-26T06:09:52Z</time>
      </trkpt>
      <trkpt lat="45.77955" lon="4.85863">
        <ele>176</ele>
        <time>2016-09-26T06:10:06Z</time>
      </trkpt>
      <trkpt lat="45.7798" lon="4.85867">
        <ele>173</ele>
        <time>2016-09-26T06:10:23Z</time>
      </trkpt>
      <trkpt lat="45.77987" lon="4.85874">
        <ele>169</ele>
        <time>2016-09-26T06:10:30Z</time>
      </trkpt>
      <trkpt lat="45.77997" lon="4.85872">
        <ele>168</ele>
        <time>2016-09-26T06:10:36Z</time>
      </trkpt>
      <trkpt lat="45.78017" lon="4.85872">
        <ele>167</ele>
        <time>2016-09-26T06:10:47Z</time>
      </trkpt>
      <trkpt lat="45.78052" lon="4.85876">
        <ele>164</ele>
        <time>2016-09-26T06:11:03Z</time>
      </trkpt>
      <trkpt lat="45.78075" lon="4.85879">
        <ele>163</ele>
        <time>2016-09-26T06:11:19Z</time>
      </trkpt>
      <trkpt lat="45.78083" lon="4.85875">
        <ele>164</ele>
        <time>2016-09-26T06:11:26Z</time>
      </trkpt>
      <trkpt lat="45.78103" lon="4.85875">
        <ele>160</ele>
        <time>2016-09-26T06:11:37Z</time>
      </trkpt>
      <trkpt lat="45.78124" lon="4.85869">
        <ele>165</ele>
        <time>2016-09-26T06:11:48Z</time>
      </trkpt>
      <trkpt lat="45.78131" lon="4.85865">
        <ele>162</ele>
        <time>2016-09-26T06:11:53Z</time>
      </trkpt>
      <trkpt lat="45.78167" lon="4.8586">
        <ele>163</ele>
        <time>2016-09-26T06:12:13Z</time>
      </trkpt>
      <trkpt lat="45.78179" lon="4.85859">
        <ele>163</ele>
        <time>2016-09-26T06:12:19Z</time>
      </trkpt>
      <trkpt lat="45.78193" lon="4.85861">
        <ele>162</ele>
        <time>2016-09-26T06:12:26Z</time>
      </trkpt>
      <trkpt lat="45.78194" lon="4.85855">
        <ele>165</ele>
        <time>2016-09-26T06:12:43Z</time>
      </trkpt>
      <trkpt lat="45.78209" lon="4.85867">
        <ele>172</ele>
        <time>2016-09-26T06:12:56Z</time>
      </trkpt>
      <trkpt lat="45.78214" lon="4.85869">
        <ele>171</ele>
        <time>2016-09-26T06:13:02Z</time>
      </trkpt>
      <trkpt lat="45.78219" lon="4.8587">
        <ele>171</ele>
        <time>2016-09-26T06:13:10Z</time>
      </trkpt>
      <trkpt lat="45.78296" lon="4.85869">
        <ele>173</ele>
        <time>2016-09-26T06:13:42Z</time>
      </trkpt>
      <trkpt lat="45.78306" lon="4.8587">
        <ele>174</ele>
        <time>2016-09-26T06:13:45Z</time>
      </trkpt>
      <trkpt lat="45.78322" lon="4.85872">
        <ele>171</ele>
        <time>2016-09-26T06:13:54Z</time>
      </trkpt>
      <trkpt lat="45.78366" lon="4.85872">
        <ele>173</ele>
        <time>2016-09-26T06:14:15Z</time>
      </trkpt>
      <trkpt lat="45.7837" lon="4.85872">
        <ele>172</ele>
        <time>2016-09-26T06:14:17Z</time>
      </trkpt>
      <trkpt lat="45.78381" lon="4.85881">
        <ele>165</ele>
        <time>2016-09-26T06:14:27Z</time>
      </trkpt>
      <trkpt lat="45.78401" lon="4.85891">
        <ele>163</ele>
        <time>2016-09-26T06:14:38Z</time>
      </trkpt>
      <trkpt lat="45.78437" lon="4.85894">
        <ele>179</ele>
        <time>2016-09-26T06:14:59Z</time>
      </trkpt>
      <trkpt lat="45.7844" lon="4.85893">
        <ele>183</ele>
        <time>2016-09-26T06:15:02Z</time>
      </trkpt>
      <trkpt lat="45.78446" lon="4.85888">
        <ele>183</ele>
        <time>2016-09-26T06:15:11Z</time>
      </trkpt>
      <trkpt lat="45.78457" lon="4.85853">
        <ele>176</ele>
        <time>2016-09-26T06:15:27Z</time>
      </trkpt>
      <trkpt lat="45.78459" lon="4.85846">
        <ele>174</ele>
        <time>2016-09-26T06:15:34Z</time>
      </trkpt>
      <trkpt lat="45.78447" lon="4.85824">
        <ele>170</ele>
        <time>2016-09-26T06:15:44Z</time>
      </trkpt>
      <trkpt lat="45.78432" lon="4.85774">
        <ele>164</ele>
        <time>2016-09-26T06:16:04Z</time>
      </trkpt>
      <trkpt lat="45.78434" lon="4.85737">
        <ele>170</ele>
        <time>2016-09-26T06:16:15Z</time>
      </trkpt>
      <trkpt lat="45.78436" lon="4.85729">
        <ele>171</ele>
        <time>2016-09-26T06:16:18Z</time>
      </trkpt>
      <trkpt lat="45.78429" lon="4.85713">
        <ele>173</ele>
        <time>2016-09-26T06:16:28Z</time>
      </trkpt>
      <trkpt lat="45.7843" lon="4.85666">
        <ele>177</ele>
        <time>2016-09-26T06:16:48Z</time>
      </trkpt>
      <trkpt lat="45.78432" lon="4.85658">
        <ele>180</ele>
        <time>2016-09-26T06:16:53Z</time>
      </trkpt>
      <trkpt lat="45.78426" lon="4.85627">
        <ele>177</ele>
        <time>2016-09-26T06:17:10Z</time>
      </trkpt>
      <trkpt lat="45.78417" lon="4.85606">
        <ele>174</ele>
        <time>2016-09-26T06:17:17Z</time>
      </trkpt>
      <trkpt lat="45.7843" lon="4.85584">
        <ele>169</ele>
        <time>2016-09-26T06:17:29Z</time>
      </trkpt>
      <trkpt lat="45.78435" lon="4.85573">
        <ele>173</ele>
        <time>2016-09-26T06:17:34Z</time>
      </trkpt>
      <trkpt lat="45.7845" lon="4.85553">
        <ele>176</ele>
        <time>2016-09-26T06:17:45Z</time>
      </trkpt>
      <trkpt lat="45.78413" lon="4.85523">
        <ele>176</ele>
        <time>2016-09-26T06:17:59Z</time>
      </trkpt>
      <trkpt lat="45.78414" lon="4.85506">
        <ele>178</ele>
        <time>2016-09-26T06:18:07Z</time>
      </trkpt>
      <trkpt lat="45.78417" lon="4.85455">
        <ele>185</ele>
        <time>2016-09-26T06:18:27Z</time>
      </trkpt>
      <trkpt lat="45.78418" lon="4.85449">
        <ele>179</ele>
        <time>2016-09-26T06:18:30Z</time>
      </trkpt>
      <trkpt lat="45.78414" lon="4.85408">
        <ele>176</ele>
        <time>2016-09-26T06:18:47Z</time>
      </trkpt>
      <trkpt lat="45.78405" lon="4.85397">
        <ele>176</ele>
        <time>2016-09-26T06:18:51Z</time>
      </trkpt>
      <trkpt lat="45.7838" lon="4.85357">
        <ele>179</ele>
        <time>2016-09-26T06:19:05Z</time>
      </trkpt>
      <trkpt lat="45.78337" lon="4.85253">
        <ele>179</ele>
        <time>2016-09-26T06:20:02Z</time>
      </trkpt>
      <trkpt lat="45.78307" lon="4.85158">
        <ele>182</ele>
        <time>2016-09-26T06:20:50Z</time>
      </trkpt>
      <trkpt lat="45.78261" lon="4.85076">
        <ele>185</ele>
        <time>2016-09-26T06:21:35Z</time>
      </trkpt>
      <trkpt lat="45.78229" lon="4.8502">
        <ele>172</ele>
        <time>2016-09-26T06:21:58Z</time>
      </trkpt>
      <trkpt lat="45.78204" lon="4.84973">
        <ele>162</ele>
        <time>2016-09-26T06:22:20Z</time>
      </trkpt>
      <trkpt lat="45.78204" lon="4.84969">
        <ele>162</ele>
        <time>2016-09-26T06:22:22Z</time>
      </trkpt>
      <trkpt lat="45.78193" lon="4.84947">
        <ele>164</ele>
        <time>2016-09-26T06:22:39Z</time>
      </trkpt>
      <trkpt lat="45.78184" lon="4.84936">
        <ele>175</ele>
        <time>2016-09-26T06:22:49Z</time>
      </trkpt>
      <trkpt lat="45.78172" lon="4.84926">
        <ele>176</ele>
        <time>2016-09-26T06:22:56Z</time>
      </trkpt>
      <trkpt lat="45.78162" lon="4.8492">
        <ele>177</ele>
        <time>2016-09-26T06:23:07Z</time>
      </trkpt>
      <trkpt lat="45.78141" lon="4.8491">
        <ele>178</ele>
        <time>2016-09-26T06:23:18Z</time>
      </trkpt>
      <trkpt lat="45.7798" lon="4.84678">
        <ele>182</ele>
        <time>2016-09-26T06:25:36Z</time>
      </trkpt>
      <trkpt lat="45.77926" lon="4.8463">
        <ele>183</ele>
        <time>2016-09-26T06:26:08Z</time>
      </trkpt>
      <trkpt lat="45.77919" lon="4.84627">
        <ele>184</ele>
        <time>2016-09-26T06:26:12Z</time>
      </trkpt>
      <trkpt lat="45.77906" lon="4.84602">
        <ele>188</ele>
        <time>2016-09-26T06:26:32Z</time>
      </trkpt>
      <trkpt lat="45.779" lon="4.84593">
        <ele>187</ele>
        <time>2016-09-26T06:26:41Z</time>
      </trkpt>
      <trkpt lat="45.77895" lon="4.84593">
        <ele>187</ele>
        <time>2016-09-26T06:26:44Z</time>
      </trkpt>
      <trkpt lat="45.77867" lon="4.84576">
        <ele>186</ele>
        <time>2016-09-26T06:27:05Z</time>
      </trkpt>
      <trkpt lat="45.77865" lon="4.84572">
        <ele>186</ele>
        <time>2016-09-26T06:27:06Z</time>
      </trkpt>
      <trkpt lat="45.77834" lon="4.84543">
        <ele>193</ele>
        <time>2016-09-26T06:27:18Z</time>
      </trkpt>
      <trkpt lat="45.77797" lon="4.84517">
        <ele>189</ele>
        <time>2016-09-26T06:27:36Z</time>
      </trkpt>
      <trkpt lat="45.77798" lon="4.84512">
        <ele>185</ele>
        <time>2016-09-26T06:27:39Z</time>
      </trkpt>
      <trkpt lat="45.77793" lon="4.84505">
        <ele>183</ele>
        <time>2016-09-26T06:27:50Z</time>
      </trkpt>
      <trkpt lat="45.77777" lon="4.84512">
        <ele>172</ele>
        <time>2016-09-26T06:28:02Z</time>
      </trkpt>
      <trkpt lat="45.77736" lon="4.8451">
        <ele>168</ele>
        <time>2016-09-26T06:28:25Z</time>
      </trkpt>
      <trkpt lat="45.77738" lon="4.84499">
        <ele>167</ele>
        <time>2016-09-26T06:28:31Z</time>
      </trkpt>
      <trkpt lat="45.77779" lon="4.84474">
        <ele>177</ele>
        <time>2016-09-26T06:28:52Z</time>
      </trkpt>
      <trkpt lat="45.77791" lon="4.84471">
        <ele>177</ele>
        <time>2016-09-26T06:28:58Z</time>
      </trkpt>
      <trkpt lat="45.77787" lon="4.84463">
        <ele>172</ele>
        <time>2016-09-26T06:29:06Z</time>
      </trkpt>
      <trkpt lat="45.77783" lon="4.8443">
        <ele>171</ele>
        <time>2016-09-26T06:29:19Z</time>
      </trkpt>
      <trkpt lat="45.77797" lon="4.84413">
        <ele>166</ele>
        <time>2016-09-26T06:29:28Z</time>
      </trkpt>
      <trkpt lat="45.77816" lon="4.84375">
        <ele>176</ele>
        <time>2016-09-26T06:29:46Z</time>
      </trkpt>
      <trkpt lat="45.77817" lon="4.84371">
        <ele>178</ele>
        <time>2016-09-26T06:29:48Z</time>
      </trkpt>
      <trkpt lat="45.77829" lon="4.84334">
        <ele>176</ele>
        <time>2016-09-26T06:30:07Z</time>
      </trkpt>
      <trkpt lat="45.77836" lon="4.84314">
        <ele>177</ele>
        <time>2016-09-26T06:30:17Z</time>
      </trkpt>
      <trkpt lat="45.7784" lon="4.84296">
        <ele>179</ele>
        <time>2016-09-26T06:30:24Z</time>
      </trkpt>
      <trkpt lat="45.77848" lon="4.84272">
        <ele>178</ele>
        <time>2016-09-26T06:30:35Z</time>
      </trkpt>
      <trkpt lat="45.77855" lon="4.84256">
        <ele>181</ele>
        <time>2016-09-26T06:30:43Z</time>
      </trkpt>
      <trkpt lat="45.77863" lon="4.8423">
        <ele>174</ele>
        <time>2016-09-26T06:30:54Z</time>
      </trkpt>
      <trkpt lat="45.77882" lon="4.84187">
        <ele>174</ele>
        <time>2016-09-26T06:31:15Z</time>
      </trkpt>
      <trkpt lat="45.77883" lon="4.84179">
        <ele>172</ele>
        <time>2016-09-26T06:31:18Z</time>
      </trkpt>
      <trkpt lat="45.77894" lon="4.84147">
        <ele>177</ele>
        <time>2016-09-26T06:31:32Z</time>
      </trkpt>
      <trkpt lat="45.77902" lon="4.84135">
        <ele>180</ele>
        <time>2016-09-26T06:31:38Z</time>
      </trkpt>
      <trkpt lat="45.77905" lon="4.84108">
        <ele>185</ele>
        <time>2016-09-26T06:31:49Z</time>
      </trkpt>
      <trkpt lat="45.77886" lon="4.84109">
        <ele>186</ele>
        <time>2016-09-26T06:32:00Z</time>
      </trkpt>
      <trkpt lat="45.77874" lon="4.84111">
        <ele>183</ele>
        <time>2016-09-26T06:32:12Z</time>
      </trkpt>
      <trkpt lat="45.77894" lon="4.84073">
        <ele>179</ele>
        <time>2016-09-26T06:32:31Z</time>
      </trkpt>
      <trkpt lat="45.77891" lon="4.84066">
        <ele>179</ele>
        <time>2016-09-26T06:32:33Z</time>
      </trkpt>
      <trkpt lat="45.77885" lon="4.84045">
        <ele>181</ele>
        <time>2016-09-26T06:32:44Z</time>
      </trkpt>
      <trkpt lat="45.77872" lon="4.84011">
        <ele>182</ele>
        <time>2016-09-26T06:33:26Z</time>
      </trkpt>
      <trkpt lat="45.77868" lon="4.84006">
        <ele>190</ele>
        <time>2016-09-26T06:33:32Z</time>
      </trkpt>
      <trkpt lat="45.77862" lon="4.84003">
        <ele>200</ele>
        <time>2016-09-26T06:33:39Z</time>
      </trkpt>
      <trkpt lat="45.77859" lon="4.83999">
        <ele>200</ele>
        <time>2016-09-26T06:33:58Z</time>
      </trkpt>
      <trkpt lat="45.7786" lon="4.83999">
        <ele>200</ele>
        <time>2016-09-26T06:34:01Z</time>
      </trkpt>
      <trkpt lat="45.77859" lon="4.83999">
        <ele>200</ele>
        <time>2016-09-26T06:34:38Z</time>
      </trkpt>
      <trkpt lat="45.77738" lon="4.83867">
        <ele>232</ele>
        <time>2016-09-26T06:36:26Z</time>
      </trkpt>
      <trkpt lat="45.77731" lon="4.83865">
        <ele>233</ele>
        <time>2016-09-26T06:36:30Z</time>
      </trkpt>
      <trkpt lat="45.77715" lon="4.8386">
        <ele>232</ele>
        <time>2016-09-26T06:36:38Z</time>
      </trkpt>
      <trkpt lat="45.77678" lon="4.83748">
        <ele>229</ele>
        <time>2016-09-26T06:37:33Z</time>
      </trkpt>
      <trkpt lat="45.77672" lon="4.83745">
        <ele>232</ele>
        <time>2016-09-26T06:37:36Z</time>
      </trkpt>
      <trkpt lat="45.77662" lon="4.83722">
        <ele>238</ele>
        <time>2016-09-26T06:37:49Z</time>
      </trkpt>
      <trkpt lat="45.77662" lon="4.837">
        <ele>245</ele>
        <time>2016-09-26T06:38:06Z</time>
      </trkpt>
      <trkpt lat="45.77682" lon="4.83703">
        <ele>248</ele>
        <time>2016-09-26T06:38:17Z</time>
      </trkpt>
      <trkpt lat="45.77696" lon="4.83704">
        <ele>252</ele>
        <time>2016-09-26T06:38:26Z</time>
      </trkpt>
      <trkpt lat="45.77711" lon="4.837">
        <ele>251</ele>
        <time>2016-09-26T06:38:38Z</time>
      </trkpt>
      <trkpt lat="45.77715" lon="4.83688">
        <ele>254</ele>
        <time>2016-09-26T06:38:44Z</time>
      </trkpt>
      <trkpt lat="45.77709" lon="4.83663">
        <ele>256</ele>
        <time>2016-09-26T06:38:53Z</time>
      </trkpt>
      <trkpt lat="45.77716" lon="4.83624">
        <ele>253</ele>
        <time>2016-09-26T06:39:07Z</time>
      </trkpt>
      <trkpt lat="45.77709" lon="4.83596">
        <ele>255</ele>
        <time>2016-09-26T06:39:26Z</time>
      </trkpt>
      <trkpt lat="45.77706" lon="4.83587">
        <ele>255</ele>
        <time>2016-09-26T06:39:29Z</time>
      </trkpt>
      <trkpt lat="45.77712" lon="4.83531">
        <ele>254</ele>
        <time>2016-09-26T06:39:49Z</time>
      </trkpt>
      <trkpt lat="45.77712" lon="4.83515">
        <ele>251</ele>
        <time>2016-09-26T06:39:53Z</time>
      </trkpt>
      <trkpt lat="45.77709" lon="4.83495">
        <ele>257</ele>
        <time>2016-09-26T06:40:02Z</time>
      </trkpt>
      <trkpt lat="45.77714" lon="4.8346">
        <ele>252</ele>
        <time>2016-09-26T06:40:22Z</time>
      </trkpt>
      <trkpt lat="45.77715" lon="4.83454">
        <ele>250</ele>
        <time>2016-09-26T06:40:24Z</time>
      </trkpt>
      <trkpt lat="45.77728" lon="4.83341">
        <ele>250</ele>
        <time>2016-09-26T06:41:03Z</time>
      </trkpt>
      <trkpt lat="45.77729" lon="4.83334">
        <ele>247</ele>
        <time>2016-09-26T06:41:10Z</time>
      </trkpt>
      <trkpt lat="45.77719" lon="4.83324">
        <ele>255</ele>
        <time>2016-09-26T06:41:18Z</time>
      </trkpt>
      <trkpt lat="45.77714" lon="4.83306">
        <ele>258</ele>
        <time>2016-09-26T06:41:27Z</time>
      </trkpt>
      <trkpt lat="45.77724" lon="4.8326">
        <ele>259</ele>
        <time>2016-09-26T06:41:47Z</time>
      </trkpt>
      <trkpt lat="45.77729" lon="4.83234">
        <ele>262</ele>
        <time>2016-09-26T06:41:56Z</time>
      </trkpt>
      <trkpt lat="45.7773" lon="4.83231">
        <ele>261</ele>
        <time>2016-09-26T06:41:59Z</time>
      </trkpt>
      <trkpt lat="45.77688" lon="4.83259">
        <ele>274</ele>
        <time>2016-09-26T06:42:27Z</time>
      </trkpt>
      <trkpt lat="45.7765" lon="4.83218">
        <ele>261</ele>
        <time>2016-09-26T06:42:41Z</time>
      </trkpt>
      <trkpt lat="45.7765" lon="4.8322">
        <ele>268</ele>
        <time>2016-09-26T06:42:46Z</time>
      </trkpt>
      <trkpt lat="45.77648" lon="4.83213">
        <ele>280</ele>
        <time>2016-09-26T06:43:07Z</time>
      </trkpt>
      <trkpt lat="45.77648" lon="4.83213">
        <ele>280</ele>
        <time>2016-09-26T06:43:08Z</time>
      </trkpt>
      <trkpt lat="45.77634" lon="4.83223">
        <ele>280</ele>
        <time>2016-09-26T06:43:25Z</time>
      </trkpt>
      <trkpt lat="45.77616" lon="4.83247">
        <ele>273</ele>
        <time>2016-09-26T06:43:35Z</time>
      </trkpt>
      <trkpt lat="45.77593" lon="4.83242">
        <ele>278</ele>
        <time>2016-09-26T06:43:51Z</time>
      </trkpt>
      <trkpt lat="45.77592" lon="4.83241">
        <ele>276</ele>
        <time>2016-09-26T06:43:52Z</time>
      </trkpt>
      <trkpt lat="45.77563" lon="4.83238">
        <ele>269</ele>
        <time>2016-09-26T06:44:09Z</time>
      </trkpt>
      <trkpt lat="45.77555" lon="4.83233">
        <ele>268</ele>
        <time>2016-09-26T06:44:15Z</time>
      </trkpt>
      <trkpt lat="45.77538" lon="4.83231">
        <ele>268</ele>
        <time>2016-09-26T06:44:25Z</time>
      </trkpt>
      <trkpt lat="45.77524" lon="4.83219">
        <ele>269</ele>
        <time>2016-09-26T06:44:36Z</time>
      </trkpt>
      <trkpt lat="45.77522" lon="4.83182">
        <ele>268</ele>
        <time>2016-09-26T06:44:49Z</time>
      </trkpt>
      <trkpt lat="45.775" lon="4.83179">
        <ele>268</ele>
        <time>2016-09-26T06:45:03Z</time>
      </trkpt>
      <trkpt lat="45.77479" lon="4.83171">
        <ele>272</ele>
        <time>2016-09-26T06:45:15Z</time>
      </trkpt>
      <trkpt lat="45.77457" lon="4.8316">
        <ele>260</ele>
        <time>2016-09-26T06:45:30Z</time>
      </trkpt>
      <trkpt lat="45.77456" lon="4.83159">
        <ele>259</ele>
        <time>2016-09-26T06:45:31Z</time>
      </trkpt>
      <trkpt lat="45.77452" lon="4.83123">
        <ele>257</ele>
        <time>2016-09-26T06:45:43Z</time>
      </trkpt>
      <trkpt lat="45.77451" lon="4.83098">
        <ele>256</ele>
        <time>2016-09-26T06:45:53Z</time>
      </trkpt>
      <trkpt lat="45.77441" lon="4.83054">
        <ele>256</ele>
        <time>2016-09-26T06:46:14Z</time>
      </trkpt>
      <trkpt lat="45.77441" lon="4.83052">
        <ele>256</ele>
        <time>2016-09-26T06:46:15Z</time>
      </trkpt>
      <trkpt lat="45.77437" lon="4.83007">
        <ele>255</ele>
        <time>2016-09-26T06:46:36Z</time>
      </trkpt>
      <trkpt lat="45.77436" lon="4.83004">
        <ele>254</ele>
        <time>2016-09-26T06:46:38Z</time>
      </trkpt>
      <trkpt lat="45.77433" lon="4.82969">
        <ele>256</ele>
        <time>2016-09-26T06:46:52Z</time>
      </trkpt>
      <trkpt lat="45.7743" lon="4.82941">
        <ele>257</ele>
        <time>2016-09-26T06:47:03Z</time>
      </trkpt>
      <trkpt lat="45.77425" lon="4.82924">
        <ele>260</ele>
        <time>2016-09-26T06:47:10Z</time>
      </trkpt>
      <trkpt lat="45.77424" lon="4.82897">
        <ele>263</ele>
        <time>2016-09-26T06:47:21Z</time>
      </trkpt>
      <trkpt lat="45.77422" lon="4.82853">
        <ele>251</ele>
        <time>2016-09-26T06:47:40Z</time>
      </trkpt>
      <trkpt lat="45.77419" lon="4.82822">
        <ele>255</ele>
        <time>2016-09-26T06:47:53Z</time>
      </trkpt>
      <trkpt lat="45.77419" lon="4.8282">
        <ele>255</ele>
        <time>2016-09-26T06:47:54Z</time>
      </trkpt>
      <trkpt lat="45.77415" lon="4.82788">
        <ele>255</ele>
        <time>2016-09-26T06:48:07Z</time>
      </trkpt>
      <trkpt lat="45.77409" lon="4.82745">
        <ele>252</ele>
        <time>2016-09-26T06:48:25Z</time>
      </trkpt>
      <trkpt lat="45.77409" lon="4.8274">
        <ele>252</ele>
        <time>2016-09-26T06:48:27Z</time>
      </trkpt>
      <trkpt lat="45.77406" lon="4.82714">
        <ele>251</ele>
        <time>2016-09-26T06:48:38Z</time>
      </trkpt>
      <trkpt lat="45.77402" lon="4.82685">
        <ele>254</ele>
        <time>2016-09-26T06:48:49Z</time>
      </trkpt>
      <trkpt lat="45.77408" lon="4.82647">
        <ele>256</ele>
        <time>2016-09-26T06:49:08Z</time>
      </trkpt>
      <trkpt lat="45.77404" lon="4.82641">
        <ele>259</ele>
        <time>2016-09-26T06:49:11Z</time>
      </trkpt>
      <trkpt lat="45.77401" lon="4.82591">
        <ele>260</ele>
        <time>2016-09-26T06:49:30Z</time>
      </trkpt>
      <trkpt lat="45.77398" lon="4.82584">
        <ele>260</ele>
        <time>2016-09-26T06:49:33Z</time>
      </trkpt>
      <trkpt lat="45.77397" lon="4.82537">
        <ele>257</ele>
        <time>2016-09-26T06:49:53Z</time>
      </trkpt>
      <trkpt lat="45.77395" lon="4.82523">
        <ele>255</ele>
        <time>2016-09-26T06:49:59Z</time>
      </trkpt>
      <trkpt lat="45.77394" lon="4.82492">
        <ele>252</ele>
        <time>2016-09-26T06:50:12Z</time>
      </trkpt>
      <trkpt lat="45.77393" lon="4.82481">
        <ele>255</ele>
        <time>2016-09-26T06:50:17Z</time>
      </trkpt>
      <trkpt lat="45.77388" lon="4.82452">
        <ele>255</ele>
        <time>2016-09-26T06:50:28Z</time>
      </trkpt>
      <trkpt lat="45.77382" lon="4.82414">
        <ele>255</ele>
        <time>2016-09-26T06:50:42Z</time>
      </trkpt>
      <trkpt lat="45.77386" lon="4.8239">
        <ele>251</ele>
        <time>2016-09-26T06:50:53Z</time>
      </trkpt>
      <trkpt lat="45.77384" lon="4.82368">
        <ele>252</ele>
        <time>2016-09-26T06:51:03Z</time>
      </trkpt>
      <trkpt lat="45.77374" lon="4.82335">
        <ele>255</ele>
        <time>2016-09-26T06:51:17Z</time>
      </trkpt>
      <trkpt lat="45.77372" lon="4.82323">
        <ele>251</ele>
        <time>2016-09-26T06:51:23Z</time>
      </trkpt>
      <trkpt lat="45.77362" lon="4.82301">
        <ele>247</ele>
        <time>2016-09-26T06:51:34Z</time>
      </trkpt>
      <trkpt lat="45.77354" lon="4.82267">
        <ele>251</ele>
        <time>2016-09-26T06:51:49Z</time>
      </trkpt>
      <trkpt lat="45.77346" lon="4.8224">
        <ele>250</ele>
        <time>2016-09-26T06:52:00Z</time>
      </trkpt>
      <trkpt lat="45.77334" lon="4.82206">
        <ele>248</ele>
        <time>2016-09-26T06:52:16Z</time>
      </trkpt>
      <trkpt lat="45.7733" lon="4.82198">
        <ele>250</ele>
        <time>2016-09-26T06:52:20Z</time>
      </trkpt>
      <trkpt lat="45.77319" lon="4.82163">
        <ele>250</ele>
        <time>2016-09-26T06:52:34Z</time>
      </trkpt>
      <trkpt lat="45.77311" lon="4.82144">
        <ele>249</ele>
        <time>2016-09-26T06:52:43Z</time>
      </trkpt>
      <trkpt lat="45.77302" lon="4.8211">
        <ele>261</ele>
        <time>2016-09-26T06:52:59Z</time>
      </trkpt>
      <trkpt lat="45.773" lon="4.82098">
        <ele>260</ele>
        <time>2016-09-26T06:53:05Z</time>
      </trkpt>
      <trkpt lat="45.77295" lon="4.82074">
        <ele>258</ele>
        <time>2016-09-26T06:53:15Z</time>
      </trkpt>
      <trkpt lat="45.77287" lon="4.82039">
        <ele>248</ele>
        <time>2016-09-26T06:53:28Z</time>
      </trkpt>
      <trkpt lat="45.77276" lon="4.82017">
        <ele>251</ele>
        <time>2016-09-26T06:53:38Z</time>
      </trkpt>
      <trkpt lat="45.77261" lon="4.81976">
        <ele>252</ele>
        <time>2016-09-26T06:53:54Z</time>
      </trkpt>
      <trkpt lat="45.77252" lon="4.81948">
        <ele>244</ele>
        <time>2016-09-26T06:54:09Z</time>
      </trkpt>
      <trkpt lat="45.77253" lon="4.81944">
        <ele>246</ele>
        <time>2016-09-26T06:54:11Z</time>
      </trkpt>
      <trkpt lat="45.77243" lon="4.81899">
        <ele>246</ele>
        <time>2016-09-26T06:54:32Z</time>
      </trkpt>
      <trkpt lat="45.77236" lon="4.81879">
        <ele>246</ele>
        <time>2016-09-26T06:54:42Z</time>
      </trkpt>
      <trkpt lat="45.7723" lon="4.81861">
        <ele>241</ele>
        <time>2016-09-26T06:54:50Z</time>
      </trkpt>
      <trkpt lat="45.77221" lon="4.81838">
        <ele>242</ele>
        <time>2016-09-26T06:55:00Z</time>
      </trkpt>
      <trkpt lat="45.77215" lon="4.81825">
        <ele>242</ele>
        <time>2016-09-26T06:55:06Z</time>
      </trkpt>
      <trkpt lat="45.77204" lon="4.81778">
        <ele>238</ele>
        <time>2016-09-26T06:55:24Z</time>
      </trkpt>
      <trkpt lat="45.77202" lon="4.81768">
        <ele>237</ele>
        <time>2016-09-26T06:55:28Z</time>
      </trkpt>
      <trkpt lat="45.77194" lon="4.81743">
        <ele>240</ele>
        <time>2016-09-26T06:55:41Z</time>
      </trkpt>
      <trkpt lat="45.77187" lon="4.81725">
        <ele>239</ele>
        <time>2016-09-26T06:55:50Z</time>
      </trkpt>
      <trkpt lat="45.7718" lon="4.81703">
        <ele>239</ele>
        <time>2016-09-26T06:56:01Z</time>
      </trkpt>
      <trkpt lat="45.77154" lon="4.81669">
        <ele>240</ele>
        <time>2016-09-26T06:56:20Z</time>
      </trkpt>
      <trkpt lat="45.77153" lon="4.81664">
        <ele>238</ele>
        <time>2016-09-26T06:56:23Z</time>
      </trkpt>
      <trkpt lat="45.77159" lon="4.81645">
        <ele>237</ele>
        <time>2016-09-26T06:56:45Z</time>
      </trkpt>
      <trkpt lat="45.77159" lon="4.81644">
        <ele>237</ele>
        <time>2016-09-26T06:56:46Z</time>
      </trkpt>
      <trkpt lat="45.77161" lon="4.81642">
        <ele>235</ele>
        <time>2016-09-26T06:57:04Z</time>
      </trkpt>
      <trkpt lat="45.77183" lon="4.81603">
        <ele>226</ele>
        <time>2016-09-26T06:57:17Z</time>
      </trkpt>
      <trkpt lat="45.77183" lon="4.81597">
        <ele>226</ele>
        <time>2016-09-26T06:57:19Z</time>
      </trkpt>
      <trkpt lat="45.77199" lon="4.81572">
        <ele>221</ele>
        <time>2016-09-26T06:57:33Z</time>
      </trkpt>
      <trkpt lat="45.77223" lon="4.81572">
        <ele>219</ele>
        <time>2016-09-26T06:57:49Z</time>
      </trkpt>
      <trkpt lat="45.77229" lon="4.81576">
        <ele>216</ele>
        <time>2016-09-26T06:57:53Z</time>
      </trkpt>
      <trkpt lat="45.77251" lon="4.81577">
        <ele>213</ele>
        <time>2016-09-26T06:58:06Z</time>
      </trkpt>
      <trkpt lat="45.77265" lon="4.81578">
        <ele>207</ele>
        <time>2016-09-26T06:58:15Z</time>
      </trkpt>
      <trkpt lat="45.77271" lon="4.81577">
        <ele>203</ele>
        <time>2016-09-26T06:58:26Z</time>
      </trkpt>
      <trkpt lat="45.77275" lon="4.81575">
        <ele>198</ele>
        <time>2016-09-26T06:58:37Z</time>
      </trkpt>
      <trkpt lat="45.77295" lon="4.81563">
        <ele>190</ele>
        <time>2016-09-26T06:58:58Z</time>
      </trkpt>
      <trkpt lat="45.77311" lon="4.81558">
        <ele>196</ele>
        <time>2016-09-26T06:59:09Z</time>
      </trkpt>
      <trkpt lat="45.77313" lon="4.81559">
        <ele>193</ele>
        <time>2016-09-26T06:59:10Z</time>
      </trkpt>
      <trkpt lat="45.77331" lon="4.81562">
        <ele>191</ele>
        <time>2016-09-26T06:59:21Z</time>
      </trkpt>
      <trkpt lat="45.77362" lon="4.81541">
        <ele>197</ele>
        <time>2016-09-26T06:59:42Z</time>
      </trkpt>
      <trkpt lat="45.77374" lon="4.81537">
        <ele>197</ele>
        <time>2016-09-26T06:59:50Z</time>
      </trkpt>
      <trkpt lat="45.77384" lon="4.81534">
        <ele>201</ele>
        <time>2016-09-26T06:59:55Z</time>
      </trkpt>
      <trkpt lat="45.77394" lon="4.81531">
        <ele>199</ele>
        <time>2016-09-26T07:00:05Z</time>
      </trkpt>
      <trkpt lat="45.7737" lon="4.81546">
        <ele>199</ele>
        <time>2016-09-26T07:00:20Z</time>
      </trkpt>
      <trkpt lat="45.77359" lon="4.81544">
        <ele>197</ele>
        <time>2016-09-26T07:00:27Z</time>
      </trkpt>
      <trkpt lat="45.77324" lon="4.81541">
        <ele>193</ele>
        <time>2016-09-26T07:00:47Z</time>
      </trkpt>
      <trkpt lat="45.77317" lon="4.81542">
        <ele>194</ele>
        <time>2016-09-26T07:00:51Z</time>
      </trkpt>
      <trkpt lat="45.77293" lon="4.81535">
        <ele>194</ele>
        <time>2016-09-26T07:01:05Z</time>
      </trkpt>
      <trkpt lat="45.7727" lon="4.81536">
        <ele>193</ele>
        <time>2016-09-26T07:01:19Z</time>
      </trkpt>
      <trkpt lat="45.77255" lon="4.81535">
        <ele>192</ele>
        <time>2016-09-26T07:01:29Z</time>
      </trkpt>
      <trkpt lat="45.77234" lon="4.81538">
        <ele>194</ele>
        <time>2016-09-26T07:01:41Z</time>
      </trkpt>
      <trkpt lat="45.77214" lon="4.81537">
        <ele>200</ele>
        <time>2016-09-26T07:01:53Z</time>
      </trkpt>
      <trkpt lat="45.77204" lon="4.81532">
        <ele>203</ele>
        <time>2016-09-26T07:01:59Z</time>
      </trkpt>
      <trkpt lat="45.77181" lon="4.8153">
        <ele>199</ele>
        <time>2016-09-26T07:02:13Z</time>
      </trkpt>
      <trkpt lat="45.77175" lon="4.81525">
        <ele>198</ele>
        <time>2016-09-26T07:02:17Z</time>
      </trkpt>
      <trkpt lat="45.77193" lon="4.81501">
        <ele>194</ele>
        <time>2016-09-26T07:02:31Z</time>
      </trkpt>
      <trkpt lat="45.77208" lon="4.81506">
        <ele>194</ele>
        <time>2016-09-26T07:02:39Z</time>
      </trkpt>
      <trkpt lat="45.77226" lon="4.81508">
        <ele>193</ele>
        <time>2016-09-26T07:02:50Z</time>
      </trkpt>
      <trkpt lat="45.77244" lon="4.8151">
        <ele>192</ele>
        <time>2016-09-26T07:03:01Z</time>
      </trkpt>
      <trkpt lat="45.7728" lon="4.81503">
        <ele>189</ele>
        <time>2016-09-26T07:03:22Z</time>
      </trkpt>
      <trkpt lat="45.77281" lon="4.81503">
        <ele>190</ele>
        <time>2016-09-26T07:03:23Z</time>
      </trkpt>
      <trkpt lat="45.77304" lon="4.81488">
        <ele>198</ele>
        <time>2016-09-26T07:03:37Z</time>
      </trkpt>
      <trkpt lat="45.77317" lon="4.81486">
        <ele>188</ele>
        <time>2016-09-26T07:03:45Z</time>
      </trkpt>
      <trkpt lat="45.77344" lon="4.81479">
        <ele>176</ele>
        <time>2016-09-26T07:04:04Z</time>
      </trkpt>
      <trkpt lat="45.77345" lon="4.8147">
        <ele>177</ele>
        <time>2016-09-26T07:04:08Z</time>
      </trkpt>
      <trkpt lat="45.7736" lon="4.8145">
        <ele>182</ele>
        <time>2016-09-26T07:04:22Z</time>
      </trkpt>
      <trkpt lat="45.7738" lon="4.81428">
        <ele>178</ele>
        <time>2016-09-26T07:04:37Z</time>
      </trkpt>
      <trkpt lat="45.77393" lon="4.81419">
        <ele>177</ele>
        <time>2016-09-26T07:04:45Z</time>
      </trkpt>
      <trkpt lat="45.77403" lon="4.81388">
        <ele>178</ele>
        <time>2016-09-26T07:04:59Z</time>
      </trkpt>
      <trkpt lat="45.77404" lon="4.81381">
        <ele>177</ele>
        <time>2016-09-26T07:05:02Z</time>
      </trkpt>
      <trkpt lat="45.77411" lon="4.81341">
        <ele>171</ele>
        <time>2016-09-26T07:05:21Z</time>
      </trkpt>
      <trkpt lat="45.77412" lon="4.81325">
        <ele>172</ele>
        <time>2016-09-26T07:05:29Z</time>
      </trkpt>
      <trkpt lat="45.77412" lon="4.81312">
        <ele>172</ele>
        <time>2016-09-26T07:05:35Z</time>
      </trkpt>
      <trkpt lat="45.77419" lon="4.81269">
        <ele>173</ele>
        <time>2016-09-26T07:05:56Z</time>
      </trkpt>
      <trkpt lat="45.7742" lon="4.81268">
        <ele>174</ele>
        <time>2016-09-26T07:05:57Z</time>
      </trkpt>
      <trkpt lat="45.77445" lon="4.81245">
        <ele>168</ele>
        <time>2016-09-26T07:06:17Z</time>
      </trkpt>
      <trkpt lat="45.77446" lon="4.8122">
        <ele>169</ele>
        <time>2016-09-26T07:06:26Z</time>
      </trkpt>
      <trkpt lat="45.77447" lon="4.81211">
        <ele>168</ele>
        <time>2016-09-26T07:06:30Z</time>
      </trkpt>
      <trkpt lat="45.77451" lon="4.81186">
        <ele>168</ele>
        <time>2016-09-26T07:06:41Z</time>
      </trkpt>
      <trkpt lat="45.77455" lon="4.81156">
        <ele>170</ele>
        <time>2016-09-26T07:06:55Z</time>
      </trkpt>
      <trkpt lat="45.77459" lon="4.81135">
        <ele>173</ele>
        <time>2016-09-26T07:07:04Z</time>
      </trkpt>
      <trkpt lat="45.77463" lon="4.81097">
        <ele>172</ele>
        <time>2016-09-26T07:07:19Z</time>
      </trkpt>
      <trkpt lat="45.77467" lon="4.81071">
        <ele>172</ele>
        <time>2016-09-26T07:07:31Z</time>
      </trkpt>
      <trkpt lat="45.7747" lon="4.81047">
        <ele>170</ele>
        <time>2016-09-26T07:07:42Z</time>
      </trkpt>
      <trkpt lat="45.7747" lon="4.81034">
        <ele>170</ele>
        <time>2016-09-26T07:07:47Z</time>
      </trkpt>
      <trkpt lat="45.77473" lon="4.81008">
        <ele>170</ele>
        <time>2016-09-26T07:07:58Z</time>
      </trkpt>
      <trkpt lat="45.77474" lon="4.80984">
        <ele>164</ele>
        <time>2016-09-26T07:08:09Z</time>
      </trkpt>
      <trkpt lat="45.77476" lon="4.8095">
        <ele>167</ele>
        <time>2016-09-26T07:08:23Z</time>
      </trkpt>
      <trkpt lat="45.77478" lon="4.80923">
        <ele>166</ele>
        <time>2016-09-26T07:08:34Z</time>
      </trkpt>
      <trkpt lat="45.77479" lon="4.80903">
        <ele>165</ele>
        <time>2016-09-26T07:08:42Z</time>
      </trkpt>
      <trkpt lat="45.77487" lon="4.80865">
        <ele>167</ele>
        <time>2016-09-26T07:09:02Z</time>
      </trkpt>
      <trkpt lat="45.77487" lon="4.80861">
        <ele>167</ele>
        <time>2016-09-26T07:09:04Z</time>
      </trkpt>
      <trkpt lat="45.77474" lon="4.8083">
        <ele>165</ele>
        <time>2016-09-26T07:09:25Z</time>
      </trkpt>
      <trkpt lat="45.77472" lon="4.80832">
        <ele>166</ele>
        <time>2016-09-26T07:09:26Z</time>
      </trkpt>
      <trkpt lat="45.77451" lon="4.80848">
        <ele>170</ele>
        <time>2016-09-26T07:09:38Z</time>
      </trkpt>
      <trkpt lat="45.77435" lon="4.80862">
        <ele>175</ele>
        <time>2016-09-26T07:09:48Z</time>
      </trkpt>
      <trkpt lat="45.77423" lon="4.80891">
        <ele>177</ele>
        <time>2016-09-26T07:10:00Z</time>
      </trkpt>
      <trkpt lat="45.77394" lon="4.80899">
        <ele>178</ele>
        <time>2016-09-26T07:10:17Z</time>
      </trkpt>
      <trkpt lat="45.77388" lon="4.8089">
        <ele>176</ele>
        <time>2016-09-26T07:10:21Z</time>
      </trkpt>
      <trkpt lat="45.77376" lon="4.80863">
        <ele>174</ele>
        <time>2016-09-26T07:10:42Z</time>
      </trkpt>
      <trkpt lat="45.77374" lon="4.8086">
        <ele>175</ele>
        <time>2016-09-26T07:10:47Z</time>
      </trkpt>
      <trkpt lat="45.77374" lon="4.80862">
        <ele>175</ele>
        <time>2016-09-26T07:10:55Z</time>
      </trkpt>
      <trkpt lat="45.77375" lon="4.80861">
        <ele>175</ele>
        <time>2016-09-26T07:11:05Z</time>
      </trkpt>
      <trkpt lat="45.77367" lon="4.80862">
        <ele>176</ele>
        <time>2016-09-26T07:11:18Z</time>
      </trkpt>
      <trkpt lat="45.77358" lon="4.80845">
        <ele>177</ele>
        <time>2016-09-26T07:11:27Z</time>
      </trkpt>
      <trkpt lat="45.77337" lon="4.80827">
        <ele>174</ele>
        <time>2016-09-26T07:11:45Z</time>
      </trkpt>
      <trkpt lat="45.77315" lon="4.80818">
        <ele>172</ele>
        <time>2016-09-26T07:11:58Z</time>
      </trkpt>
      <trkpt lat="45.77302" lon="4.80821">
        <ele>167</ele>
        <time>2016-09-26T07:12:06Z</time>
      </trkpt>
      <trkpt lat="45.77296" lon="4.80823">
        <ele>166</ele>
        <time>2016-09-26T07:12:11Z</time>
      </trkpt>
      <trkpt lat="45.77269" lon="4.80824">
        <ele>171</ele>
        <time>2016-09-26T07:12:28Z</time>
      </trkpt>
      <trkpt lat="45.77259" lon="4.80831">
        <ele>170</ele>
        <time>2016-09-26T07:12:34Z</time>
      </trkpt>
      <trkpt lat="45.77242" lon="4.80835">
        <ele>173</ele>
        <time>2016-09-26T07:12:44Z</time>
      </trkpt>
      <trkpt lat="45.77226" lon="4.80841">
        <ele>176</ele>
        <time>2016-09-26T07:12:55Z</time>
      </trkpt>
      <trkpt lat="45.77208" lon="4.80849">
        <ele>170</ele>
        <time>2016-09-26T07:13:06Z</time>
      </trkpt>
      <trkpt lat="45.77181" lon="4.80856">
        <ele>176</ele>
        <time>2016-09-26T07:13:23Z</time>
      </trkpt>
      <trkpt lat="45.77172" lon="4.80857">
        <ele>178</ele>
        <time>2016-09-26T07:13:29Z</time>
      </trkpt>
      <trkpt lat="45.77146" lon="4.80866">
        <ele>184</ele>
        <time>2016-09-26T07:13:45Z</time>
      </trkpt>
      <trkpt lat="45.77135" lon="4.8087">
        <ele>187</ele>
        <time>2016-09-26T07:13:52Z</time>
      </trkpt>
      <trkpt lat="45.77118" lon="4.8088">
        <ele>196</ele>
        <time>2016-09-26T07:14:03Z</time>
      </trkpt>
      <trkpt lat="45.77105" lon="4.80891">
        <ele>202</ele>
        <time>2016-09-26T07:14:13Z</time>
      </trkpt>
      <trkpt lat="45.77095" lon="4.80887">
        <ele>200</ele>
        <time>2016-09-26T07:14:23Z</time>
      </trkpt>
      <trkpt lat="45.77082" lon="4.80887">
        <ele>204</ele>
        <time>2016-09-26T07:14:34Z</time>
      </trkpt>
      <trkpt lat="45.77068" lon="4.80885">
        <ele>200</ele>
        <time>2016-09-26T07:14:45Z</time>
      </trkpt>
      <trkpt lat="45.77046" lon="4.80884">
        <ele>188</ele>
        <time>2016-09-26T07:15:02Z</time>
      </trkpt>
      <trkpt lat="45.77039" lon="4.80883">
        <ele>192</ele>
        <time>2016-09-26T07:15:07Z</time>
      </trkpt>
      <trkpt lat="45.77012" lon="4.80899">
        <ele>196</ele>
        <time>2016-09-26T07:15:26Z</time>
      </trkpt>
      <trkpt lat="45.77009" lon="4.809">
        <ele>200</ele>
        <time>2016-09-26T07:15:29Z</time>
      </trkpt>
      <trkpt lat="45.76982" lon="4.80912">
        <ele>215</ele>
        <time>2016-09-26T07:15:50Z</time>
      </trkpt>
      <trkpt lat="45.76976" lon="4.80908">
        <ele>221</ele>
        <time>2016-09-26T07:15:54Z</time>
      </trkpt>
      <trkpt lat="45.76967" lon="4.80904">
        <ele>226</ele>
        <time>2016-09-26T07:16:02Z</time>
      </trkpt>
      <trkpt lat="45.76953" lon="4.8091">
        <ele>230</ele>
        <time>2016-09-26T07:16:13Z</time>
      </trkpt>
      <trkpt lat="45.76937" lon="4.80911">
        <ele>240</ele>
        <time>2016-09-26T07:16:27Z</time>
      </trkpt>
      <trkpt lat="45.76932" lon="4.80898">
        <ele>240</ele>
        <time>2016-09-26T07:16:38Z</time>
      </trkpt>
      <trkpt lat="45.76898" lon="4.80903">
        <ele>240</ele>
        <time>2016-09-26T07:16:55Z</time>
      </trkpt>
      <trkpt lat="45.7689" lon="4.80898">
        <ele>241</ele>
        <time>2016-09-26T07:16:58Z</time>
      </trkpt>
      <trkpt lat="45.76852" lon="4.80894">
        <ele>229</ele>
        <time>2016-09-26T07:17:18Z</time>
      </trkpt>
      <trkpt lat="45.76844" lon="4.8089">
        <ele>237</ele>
        <time>2016-09-26T07:17:25Z</time>
      </trkpt>
      <trkpt lat="45.76839" lon="4.80893">
        <ele>239</ele>
        <time>2016-09-26T07:17:32Z</time>
      </trkpt>
      <trkpt lat="45.76814" lon="4.8089">
        <ele>239</ele>
        <time>2016-09-26T07:17:51Z</time>
      </trkpt>
      <trkpt lat="45.76809" lon="4.80891">
        <ele>241</ele>
        <time>2016-09-26T07:17:56Z</time>
      </trkpt>
      <trkpt lat="45.76793" lon="4.80891">
        <ele>239</ele>
        <time>2016-09-26T07:18:09Z</time>
      </trkpt>
      <trkpt lat="45.76784" lon="4.8089">
        <ele>237</ele>
        <time>2016-09-26T07:18:16Z</time>
      </trkpt>
      <trkpt lat="45.76765" lon="4.80891">
        <ele>243</ele>
        <time>2016-09-26T07:18:35Z</time>
      </trkpt>
      <trkpt lat="45.76763" lon="4.80891">
        <ele>241</ele>
        <time>2016-09-26T07:18:40Z</time>
      </trkpt>
      <trkpt lat="45.76752" lon="4.80896">
        <ele>248</ele>
        <time>2016-09-26T07:18:56Z</time>
      </trkpt>
      <trkpt lat="45.76746" lon="4.80914">
        <ele>253</ele>
        <time>2016-09-26T07:19:08Z</time>
      </trkpt>
      <trkpt lat="45.76741" lon="4.80916">
        <ele>250</ele>
        <time>2016-09-26T07:19:11Z</time>
      </trkpt>
      <trkpt lat="45.76722" lon="4.80926">
        <ele>250</ele>
        <time>2016-09-26T07:19:22Z</time>
      </trkpt>
      <trkpt lat="45.76699" lon="4.80937">
        <ele>256</ele>
        <time>2016-09-26T07:19:36Z</time>
      </trkpt>
      <trkpt lat="45.76686" lon="4.8094">
        <ele>258</ele>
        <time>2016-09-26T07:19:44Z</time>
      </trkpt>
      <trkpt lat="45.76658" lon="4.8095">
        <ele>257</ele>
        <time>2016-09-26T07:20:03Z</time>
      </trkpt>
      <trkpt lat="45.76654" lon="4.80953">
        <ele>258</ele>
        <time>2016-09-26T07:20:06Z</time>
      </trkpt>
      <trkpt lat="45.76638" lon="4.80965">
        <ele>258</ele>
        <time>2016-09-26T07:20:19Z</time>
      </trkpt>
      <trkpt lat="45.76625" lon="4.80979">
        <ele>256</ele>
        <time>2016-09-26T07:20:28Z</time>
      </trkpt>
      <trkpt lat="45.76615" lon="4.80978">
        <ele>259</ele>
        <time>2016-09-26T07:20:40Z</time>
      </trkpt>
      <trkpt lat="45.76577" lon="4.81017">
        <ele>272</ele>
        <time>2016-09-26T07:21:00Z</time>
      </trkpt>
      <trkpt lat="45.76576" lon="4.81019">
        <ele>271</ele>
        <time>2016-09-26T07:21:01Z</time>
      </trkpt>
      <trkpt lat="45.76554" lon="4.81031">
        <ele>272</ele>
        <time>2016-09-26T07:21:19Z</time>
      </trkpt>
      <trkpt lat="45.76548" lon="4.81035">
        <ele>273</ele>
        <time>2016-09-26T07:21:23Z</time>
      </trkpt>
      <trkpt lat="45.76536" lon="4.81055">
        <ele>276</ele>
        <time>2016-09-26T07:21:35Z</time>
      </trkpt>
      <trkpt lat="45.76522" lon="4.8107">
        <ele>275</ele>
        <time>2016-09-26T07:21:45Z</time>
      </trkpt>
      <trkpt lat="45.76513" lon="4.81087">
        <ele>275</ele>
        <time>2016-09-26T07:21:56Z</time>
      </trkpt>
      <trkpt lat="45.76508" lon="4.81115">
        <ele>274</ele>
        <time>2016-09-26T07:22:08Z</time>
      </trkpt>
      <trkpt lat="45.76497" lon="4.81127">
        <ele>267</ele>
        <time>2016-09-26T07:22:18Z</time>
      </trkpt>
      <trkpt lat="45.76481" lon="4.81167">
        <ele>265</ele>
        <time>2016-09-26T07:22:36Z</time>
      </trkpt>
      <trkpt lat="45.76479" lon="4.81186">
        <ele>273</ele>
        <time>2016-09-26T07:22:43Z</time>
      </trkpt>
      <trkpt lat="45.76473" lon="4.81204">
        <ele>270</ele>
        <time>2016-09-26T07:22:52Z</time>
      </trkpt>
      <trkpt lat="45.76459" lon="4.81225">
        <ele>273</ele>
        <time>2016-09-26T07:23:05Z</time>
      </trkpt>
      <trkpt lat="45.76449" lon="4.81236">
        <ele>270</ele>
        <time>2016-09-26T07:23:14Z</time>
      </trkpt>
      <trkpt lat="45.76436" lon="4.81263">
        <ele>271</ele>
        <time>2016-09-26T07:23:27Z</time>
      </trkpt>
      <trkpt lat="45.7643" lon="4.81278">
        <ele>273</ele>
        <time>2016-09-26T07:23:35Z</time>
      </trkpt>
      <trkpt lat="45.76401" lon="4.81293">
        <ele>274</ele>
        <time>2016-09-26T07:23:53Z</time>
      </trkpt>
      <trkpt lat="45.76397" lon="4.81298">
        <ele>275</ele>
        <time>2016-09-26T07:23:57Z</time>
      </trkpt>
      <trkpt lat="45.76381" lon="4.81322">
        <ele>278</ele>
        <time>2016-09-26T07:24:14Z</time>
      </trkpt>
      <trkpt lat="45.76373" lon="4.81327">
        <ele>278</ele>
        <time>2016-09-26T07:24:19Z</time>
      </trkpt>
      <trkpt lat="45.76355" lon="4.81325">
        <ele>275</ele>
        <time>2016-09-26T07:24:30Z</time>
      </trkpt>
      <trkpt lat="45.76322" lon="4.81318">
        <ele>281</ele>
        <time>2016-09-26T07:24:51Z</time>
      </trkpt>
      <trkpt lat="45.76321" lon="4.81318">
        <ele>281</ele>
        <time>2016-09-26T07:24:52Z</time>
      </trkpt>
      <trkpt lat="45.76299" lon="4.81337">
        <ele>278</ele>
        <time>2016-09-26T07:25:09Z</time>
      </trkpt>
      <trkpt lat="45.76294" lon="4.81345">
        <ele>280</ele>
        <time>2016-09-26T07:25:14Z</time>
      </trkpt>
      <trkpt lat="45.76292" lon="4.81394">
        <ele>286</ele>
        <time>2016-09-26T07:25:34Z</time>
      </trkpt>
      <trkpt lat="45.76292" lon="4.814">
        <ele>286</ele>
        <time>2016-09-26T07:25:36Z</time>
      </trkpt>
      <trkpt lat="45.76293" lon="4.81426">
        <ele>285</ele>
        <time>2016-09-26T07:25:47Z</time>
      </trkpt>
      <trkpt lat="45.76293" lon="4.81451">
        <ele>290</ele>
        <time>2016-09-26T07:25:58Z</time>
      </trkpt>
      <trkpt lat="45.763" lon="4.81491">
        <ele>289</ele>
        <time>2016-09-26T07:26:17Z</time>
      </trkpt>
      <trkpt lat="45.76301" lon="4.81518">
        <ele>289</ele>
        <time>2016-09-26T07:26:29Z</time>
      </trkpt>
      <trkpt lat="45.76302" lon="4.81522">
        <ele>285</ele>
        <time>2016-09-26T07:26:31Z</time>
      </trkpt>
      <trkpt lat="45.76303" lon="4.81547">
        <ele>282</ele>
        <time>2016-09-26T07:26:42Z</time>
      </trkpt>
      <trkpt lat="45.76307" lon="4.81572">
        <ele>289</ele>
        <time>2016-09-26T07:26:53Z</time>
      </trkpt>
      <trkpt lat="45.7631" lon="4.8161">
        <ele>291</ele>
        <time>2016-09-26T07:27:06Z</time>
      </trkpt>
      <trkpt lat="45.7632" lon="4.8164">
        <ele>288</ele>
        <time>2016-09-26T07:27:18Z</time>
      </trkpt>
      <trkpt lat="45.76321" lon="4.81654">
        <ele>287</ele>
        <time>2016-09-26T07:27:26Z</time>
      </trkpt>
      <trkpt lat="45.76318" lon="4.81676">
        <ele>282</ele>
        <time>2016-09-26T07:27:37Z</time>
      </trkpt>
      <trkpt lat="45.76334" lon="4.81719">
        <ele>284</ele>
        <time>2016-09-26T07:27:56Z</time>
      </trkpt>
      <trkpt lat="45.76333" lon="4.81731">
        <ele>287</ele>
        <time>2016-09-26T07:28:01Z</time>
      </trkpt>
      <trkpt lat="45.76331" lon="4.81765">
        <ele>281</ele>
        <time>2016-09-26T07:28:15Z</time>
      </trkpt>
      <trkpt lat="45.76331" lon="4.8178">
        <ele>280</ele>
        <time>2016-09-26T07:28:22Z</time>
      </trkpt>
      <trkpt lat="45.76331" lon="4.81808">
        <ele>278</ele>
        <time>2016-09-26T07:28:34Z</time>
      </trkpt>
      <trkpt lat="45.76329" lon="4.81843">
        <ele>285</ele>
        <time>2016-09-26T07:28:44Z</time>
      </trkpt>
      <trkpt lat="45.76325" lon="4.81878">
        <ele>278</ele>
        <time>2016-09-26T07:29:01Z</time>
      </trkpt>
      <trkpt lat="45.76324" lon="4.81888">
        <ele>280</ele>
        <time>2016-09-26T07:29:05Z</time>
      </trkpt>
      <trkpt lat="45.76316" lon="4.81934">
        <ele>282</ele>
        <time>2016-09-26T07:29:25Z</time>
      </trkpt>
      <trkpt lat="45.76314" lon="4.81938">
        <ele>281</ele>
        <time>2016-09-26T07:29:27Z</time>
      </trkpt>
      <trkpt lat="45.76307" lon="4.81963">
        <ele>283</ele>
        <time>2016-09-26T07:29:38Z</time>
      </trkpt>
      <trkpt lat="45.763" lon="4.81992">
        <ele>281</ele>
        <time>2016-09-26T07:29:52Z</time>
      </trkpt>
      <trkpt lat="45.76297" lon="4.82007">
        <ele>282</ele>
        <time>2016-09-26T07:30:00Z</time>
      </trkpt>
      <trkpt lat="45.76302" lon="4.82032">
        <ele>282</ele>
        <time>2016-09-26T07:30:11Z</time>
      </trkpt>
      <trkpt lat="45.76312" lon="4.82055">
        <ele>278</ele>
        <time>2016-09-26T07:30:22Z</time>
      </trkpt>
      <trkpt lat="45.7632" lon="4.82098">
        <ele>287</ele>
        <time>2016-09-26T07:30:41Z</time>
      </trkpt>
      <trkpt lat="45.76321" lon="4.82104">
        <ele>287</ele>
        <time>2016-09-26T07:30:44Z</time>
      </trkpt>
      <trkpt lat="45.76328" lon="4.82126">
        <ele>285</ele>
        <time>2016-09-26T07:30:55Z</time>
      </trkpt>
      <trkpt lat="45.76344" lon="4.82154">
        <ele>291</ele>
        <time>2016-09-26T07:31:08Z</time>
      </trkpt>
      <trkpt lat="45.76355" lon="4.82166">
        <ele>287</ele>
        <time>2016-09-26T07:31:17Z</time>
      </trkpt>
      <trkpt lat="45.76361" lon="4.82206">
        <ele>292</ele>
        <time>2016-09-26T07:31:35Z</time>
      </trkpt>
      <trkpt lat="45.76355" lon="4.8222">
        <ele>291</ele>
        <time>2016-09-26T07:31:42Z</time>
      </trkpt>
      <trkpt lat="45.76342" lon="4.82225">
        <ele>299</ele>
        <time>2016-09-26T07:31:52Z</time>
      </trkpt>
      <trkpt lat="45.7633" lon="4.82227">
        <ele>299</ele>
        <time>2016-09-26T07:32:01Z</time>
      </trkpt>
      <trkpt lat="45.76297" lon="4.82221">
        <ele>301</ele>
        <time>2016-09-26T07:32:20Z</time>
      </trkpt>
      <trkpt lat="45.76287" lon="4.82224">
        <ele>299</ele>
        <time>2016-09-26T07:32:29Z</time>
      </trkpt>
      <trkpt lat="45.76285" lon="4.8224">
        <ele>297</ele>
        <time>2016-09-26T07:32:36Z</time>
      </trkpt>
      <trkpt lat="45.76272" lon="4.82277">
        <ele>297</ele>
        <time>2016-09-26T07:32:54Z</time>
      </trkpt>
      <trkpt lat="45.76267" lon="4.82286">
        <ele>298</ele>
        <time>2016-09-26T07:32:58Z</time>
      </trkpt>
      <trkpt lat="45.76256" lon="4.8229">
        <ele>291</ele>
        <time>2016-09-26T07:33:07Z</time>
      </trkpt>
      <trkpt lat="45.7625" lon="4.82287">
        <ele>285</ele>
        <time>2016-09-26T07:33:18Z</time>
      </trkpt>
      <trkpt lat="45.76248" lon="4.823">
        <ele>285</ele>
        <time>2016-09-26T07:33:30Z</time>
      </trkpt>
      <trkpt lat="45.76267" lon="4.82315">
        <ele>284</ele>
        <time>2016-09-26T07:33:46Z</time>
      </trkpt>
      <trkpt lat="45.76287" lon="4.82327">
        <ele>279</ele>
        <time>2016-09-26T07:34:00Z</time>
      </trkpt>
      <trkpt lat="45.76293" lon="4.82338">
        <ele>274</ele>
        <time>2016-09-26T07:34:06Z</time>
      </trkpt>
      <trkpt lat="45.76282" lon="4.82337">
        <ele>264</ele>
        <time>2016-09-26T07:34:14Z</time>
      </trkpt>
      <trkpt lat="45.76257" lon="4.82333">
        <ele>266</ele>
        <time>2016-09-26T07:34:31Z</time>
      </trkpt>
      <trkpt lat="45.76242" lon="4.82335">
        <ele>266</ele>
        <time>2016-09-26T07:34:42Z</time>
      </trkpt>
      <trkpt lat="45.76245" lon="4.82345">
        <ele>263</ele>
        <time>2016-09-26T07:34:54Z</time>
      </trkpt>
      <trkpt lat="45.76249" lon="4.82347">
        <ele>264</ele>
        <time>2016-09-26T07:34:57Z</time>
      </trkpt>
      <trkpt lat="45.7627" lon="4.82358">
        <ele>267</ele>
        <time>2016-09-26T07:35:08Z</time>
      </trkpt>
      <trkpt lat="45.76282" lon="4.82373">
        <ele>261</ele>
        <time>2016-09-26T07:35:22Z</time>
      </trkpt>
      <trkpt lat="45.76271" lon="4.82372">
        <ele>254</ele>
        <time>2016-09-26T07:35:30Z</time>
      </trkpt>
      <trkpt lat="45.76243" lon="4.82371">
        <ele>259</ele>
        <time>2016-09-26T07:35:47Z</time>
      </trkpt>
      <trkpt lat="45.76228" lon="4.82376">
        <ele>249</ele>
        <time>2016-09-26T07:36:02Z</time>
      </trkpt>
      <trkpt lat="45.76229" lon="4.82383">
        <ele>254</ele>
        <time>2016-09-26T07:36:05Z</time>
      </trkpt>
      <trkpt lat="45.76246" lon="4.82407">
        <ele>256</ele>
        <time>2016-09-26T07:36:23Z</time>
      </trkpt>
      <trkpt lat="45.76247" lon="4.8241">
        <ele>258</ele>
        <time>2016-09-26T07:36:25Z</time>
      </trkpt>
      <trkpt lat="45.76261" lon="4.82418">
        <ele>252</ele>
        <time>2016-09-26T07:36:36Z</time>
      </trkpt>
      <trkpt lat="45.76253" lon="4.82425">
        <ele>246</ele>
        <time>2016-09-26T07:36:48Z</time>
      </trkpt>
      <trkpt lat="45.76239" lon="4.82417">
        <ele>242</ele>
        <time>2016-09-26T07:36:58Z</time>
      </trkpt>
      <trkpt lat="45.76217" lon="4.8242">
        <ele>237</ele>
        <time>2016-09-26T07:37:17Z</time>
      </trkpt>
      <trkpt lat="45.76217" lon="4.82426">
        <ele>237</ele>
        <time>2016-09-26T07:37:20Z</time>
      </trkpt>
      <trkpt lat="45.76227" lon="4.82444">
        <ele>231</ele>
        <time>2016-09-26T07:37:36Z</time>
      </trkpt>
      <trkpt lat="45.76236" lon="4.82461">
        <ele>233</ele>
        <time>2016-09-26T07:37:51Z</time>
      </trkpt>
      <trkpt lat="45.76239" lon="4.82465">
        <ele>234</ele>
        <time>2016-09-26T07:37:55Z</time>
      </trkpt>
      <trkpt lat="45.76238" lon="4.82465">
        <ele>233</ele>
        <time>2016-09-26T07:38:05Z</time>
      </trkpt>
      <trkpt lat="45.7624" lon="4.82465">
        <ele>234</ele>
        <time>2016-09-26T07:38:15Z</time>
      </trkpt>
      <trkpt lat="45.76252" lon="4.82498">
        <ele>234</ele>
        <time>2016-09-26T07:38:29Z</time>
      </trkpt>
      <trkpt lat="45.76267" lon="4.8252">
        <ele>231</ele>
        <time>2016-09-26T07:38:39Z</time>
      </trkpt>
      <trkpt lat="45.76279" lon="4.82533">
        <ele>224</ele>
        <time>2016-09-26T07:38:49Z</time>
      </trkpt>
      <trkpt lat="45.76293" lon="4.82549">
        <ele>224</ele>
        <time>2016-09-26T07:38:59Z</time>
      </trkpt>
      <trkpt lat="45.76292" lon="4.82555">
        <ele>220</ele>
        <time>2016-09-26T07:39:10Z</time>
      </trkpt>
      <trkpt lat="45.76316" lon="4.82586">
        <ele>214</ele>
        <time>2016-09-26T07:39:27Z</time>
      </trkpt>
      <trkpt lat="45.76332" lon="4.82594">
        <ele>213</ele>
        <time>2016-09-26T07:39:36Z</time>
      </trkpt>
      <trkpt lat="45.76349" lon="4.82607">
        <ele>209</ele>
        <time>2016-09-26T07:39:47Z</time>
      </trkpt>
      <trkpt lat="45.76357" lon="4.82613">
        <ele>207</ele>
        <time>2016-09-26T07:39:54Z</time>
      </trkpt>
      <trkpt lat="45.76371" lon="4.82614">
        <ele>207</ele>
        <time>2016-09-26T07:40:07Z</time>
      </trkpt>
      <trkpt lat="45.76389" lon="4.82624">
        <ele>208</ele>
        <time>2016-09-26T07:40:16Z</time>
      </trkpt>
      <trkpt lat="45.76409" lon="4.82637">
        <ele>198</ele>
        <time>2016-09-26T07:40:27Z</time>
      </trkpt>
      <trkpt lat="45.76433" lon="4.82638">
        <ele>198</ele>
        <time>2016-09-26T07:40:40Z</time>
      </trkpt>
      <trkpt lat="45.76448" lon="4.82644">
        <ele>201</ele>
        <time>2016-09-26T07:40:49Z</time>
      </trkpt>
      <trkpt lat="45.76469" lon="4.82646">
        <ele>202</ele>
        <time>2016-09-26T07:41:01Z</time>
      </trkpt>
      <trkpt lat="45.76487" lon="4.82646">
        <ele>204</ele>
        <time>2016-09-26T07:41:16Z</time>
      </trkpt>
      <trkpt lat="45.76501" lon="4.82647">
        <ele>208</ele>
        <time>2016-09-26T07:41:24Z</time>
      </trkpt>
      <trkpt lat="45.76519" lon="4.82663">
        <ele>203</ele>
        <time>2016-09-26T07:41:37Z</time>
      </trkpt>
      <trkpt lat="45.76544" lon="4.82665">
        <ele>198</ele>
        <time>2016-09-26T07:41:54Z</time>
      </trkpt>
      <trkpt lat="45.76554" lon="4.82668">
        <ele>197</ele>
        <time>2016-09-26T07:42:04Z</time>
      </trkpt>
      <trkpt lat="45.76564" lon="4.82672">
        <ele>198</ele>
        <time>2016-09-26T07:42:10Z</time>
      </trkpt>
      <trkpt lat="45.76584" lon="4.82682">
        <ele>197</ele>
        <time>2016-09-26T07:42:19Z</time>
      </trkpt>
      <trkpt lat="45.76583" lon="4.82688">
        <ele>194</ele>
        <time>2016-09-26T07:42:28Z</time>
      </trkpt>
      <trkpt lat="45.76586" lon="4.82707">
        <ele>183</ele>
        <time>2016-09-26T07:42:40Z</time>
      </trkpt>
      <trkpt lat="45.76584" lon="4.82753">
        <ele>175</ele>
        <time>2016-09-26T07:43:00Z</time>
      </trkpt>
      <trkpt lat="45.76592" lon="4.82773">
        <ele>176</ele>
        <time>2016-09-26T07:43:09Z</time>
      </trkpt>
      <trkpt lat="45.76593" lon="4.82782">
        <ele>176</ele>
        <time>2016-09-26T07:43:13Z</time>
      </trkpt>
      <trkpt lat="45.766" lon="4.82808">
        <ele>172</ele>
        <time>2016-09-26T07:43:25Z</time>
      </trkpt>
      <trkpt lat="45.76605" lon="4.82831">
        <ele>168</ele>
        <time>2016-09-26T07:43:35Z</time>
      </trkpt>
      <trkpt lat="45.76615" lon="4.82867">
        <ele>168</ele>
        <time>2016-09-26T07:43:51Z</time>
      </trkpt>
      <trkpt lat="45.76626" lon="4.82885">
        <ele>172</ele>
        <time>2016-09-26T07:44:01Z</time>
      </trkpt>
      <trkpt lat="45.766" lon="4.82897">
        <ele>165</ele>
        <time>2016-09-26T07:44:18Z</time>
      </trkpt>
      <trkpt lat="45.76598" lon="4.82898">
        <ele>166</ele>
        <time>2016-09-26T07:44:19Z</time>
      </trkpt>
      <trkpt lat="45.7658" lon="4.82903">
        <ele>160</ele>
        <time>2016-09-26T07:44:30Z</time>
      </trkpt>
      <trkpt lat="45.76563" lon="4.82909">
        <ele>161</ele>
        <time>2016-09-26T07:44:41Z</time>
      </trkpt>
      <trkpt lat="45.76531" lon="4.8291">
        <ele>161</ele>
        <time>2016-09-26T07:45:01Z</time>
      </trkpt>
      <trkpt lat="45.7652" lon="4.82913">
        <ele>159</ele>
        <time>2016-09-26T07:45:07Z</time>
      </trkpt>
      <trkpt lat="45.76507" lon="4.82914">
        <ele>157</ele>
        <time>2016-09-26T07:45:15Z</time>
      </trkpt>
      <trkpt lat="45.76489" lon="4.82919">
        <ele>157</ele>
        <time>2016-09-26T07:45:27Z</time>
      </trkpt>
      <trkpt lat="45.76464" lon="4.82928">
        <ele>161</ele>
        <time>2016-09-26T07:45:42Z</time>
      </trkpt>
      <trkpt lat="45.76456" lon="4.82936">
        <ele>163</ele>
        <time>2016-09-26T07:45:47Z</time>
      </trkpt>
      <trkpt lat="45.76439" lon="4.8294">
        <ele>165</ele>
        <time>2016-09-26T07:45:58Z</time>
      </trkpt>
      <trkpt lat="45.76422" lon="4.82938">
        <ele>165</ele>
        <time>2016-09-26T07:46:09Z</time>
      </trkpt>
      <trkpt lat="45.76405" lon="4.82939">
        <ele>164</ele>
        <time>2016-09-26T07:46:20Z</time>
      </trkpt>
      <trkpt lat="45.76387" lon="4.82938">
        <ele>165</ele>
        <time>2016-09-26T07:46:31Z</time>
      </trkpt>
      <trkpt lat="45.76365" lon="4.82941">
        <ele>169</ele>
        <time>2016-09-26T07:46:44Z</time>
      </trkpt>
      <trkpt lat="45.76336" lon="4.82939">
        <ele>169</ele>
        <time>2016-09-26T07:47:02Z</time>
      </trkpt>
      <trkpt lat="45.76325" lon="4.82943">
        <ele>170</ele>
        <time>2016-09-26T07:47:09Z</time>
      </trkpt>
      <trkpt lat="45.76306" lon="4.82939">
        <ele>170</ele>
        <time>2016-09-26T07:47:20Z</time>
      </trkpt>
      <trkpt lat="45.76284" lon="4.82933">
        <ele>171</ele>
        <time>2016-09-26T07:47:33Z</time>
      </trkpt>
      <trkpt lat="45.76277" lon="4.82928">
        <ele>169</ele>
        <time>2016-09-26T07:47:38Z</time>
      </trkpt>
      <trkpt lat="45.76244" lon="4.82924">
        <ele>172</ele>
        <time>2016-09-26T07:47:57Z</time>
      </trkpt>
      <trkpt lat="45.76241" lon="4.82923">
        <ele>172</ele>
        <time>2016-09-26T07:47:59Z</time>
      </trkpt>
      <trkpt lat="45.76227" lon="4.8291">
        <ele>171</ele>
        <time>2016-09-26T07:48:10Z</time>
      </trkpt>
      <trkpt lat="45.76197" lon="4.82891">
        <ele>171</ele>
        <time>2016-09-26T07:48:30Z</time>
      </trkpt>
      <trkpt lat="45.76183" lon="4.82892">
        <ele>172</ele>
        <time>2016-09-26T07:48:39Z</time>
      </trkpt>
      <trkpt lat="45.76178" lon="4.829">
        <ele>173</ele>
        <time>2016-09-26T07:48:43Z</time>
      </trkpt>
      <trkpt lat="45.76168" lon="4.82924">
        <ele>174</ele>
        <time>2016-09-26T07:48:54Z</time>
      </trkpt>
      <trkpt lat="45.76163" lon="4.82955">
        <ele>176</ele>
        <time>2016-09-26T07:49:08Z</time>
      </trkpt>
      <trkpt lat="45.7616" lon="4.82975">
        <ele>177</ele>
        <time>2016-09-26T07:49:17Z</time>
      </trkpt>
      <trkpt lat="45.76154" lon="4.82998">
        <ele>175</ele>
        <time>2016-09-26T07:49:27Z</time>
      </trkpt>
      <trkpt lat="45.76149" lon="4.83023">
        <ele>174</ele>
        <time>2016-09-26T07:49:38Z</time>
      </trkpt>
      <trkpt lat="45.76145" lon="4.83049">
        <ele>173</ele>
        <time>2016-09-26T07:49:49Z</time>
      </trkpt>
      <trkpt lat="45.7614" lon="4.83073">
        <ele>171</ele>
        <time>2016-09-26T07:50:00Z</time>
      </trkpt>
      <trkpt lat="45.76134" lon="4.83093">
        <ele>173</ele>
        <time>2016-09-26T07:50:11Z</time>
      </trkpt>
      <trkpt lat="45.76123" lon="4.83113">
        <ele>173</ele>
        <time>2016-09-26T07:50:22Z</time>
      </trkpt>
      <trkpt lat="45.76104" lon="4.8311">
        <ele>170</ele>
        <time>2016-09-26T07:50:33Z</time>
      </trkpt>
      <trkpt lat="45.76082" lon="4.83102">
        <ele>174</ele>
        <time>2016-09-26T07:50:44Z</time>
      </trkpt>
      <trkpt lat="45.76069" lon="4.83084">
        <ele>174</ele>
        <time>2016-09-26T07:50:56Z</time>
      </trkpt>
      <trkpt lat="45.76045" lon="4.83066">
        <ele>172</ele>
        <time>2016-09-26T07:51:12Z</time>
      </trkpt>
      <trkpt lat="45.76031" lon="4.83056">
        <ele>173</ele>
        <time>2016-09-26T07:51:22Z</time>
      </trkpt>
      <trkpt lat="45.76016" lon="4.8304">
        <ele>173</ele>
        <time>2016-09-26T07:51:36Z</time>
      </trkpt>
      <trkpt lat="45.76012" lon="4.83036">
        <ele>175</ele>
        <time>2016-09-26T07:51:39Z</time>
      </trkpt>
      <trkpt lat="45.75996" lon="4.83023">
        <ele>176</ele>
        <time>2016-09-26T07:51:50Z</time>
      </trkpt>
      <trkpt lat="45.75983" lon="4.82998">
        <ele>177</ele>
        <time>2016-09-26T07:52:03Z</time>
      </trkpt>
      <trkpt lat="45.75965" lon="4.82991">
        <ele>174</ele>
        <time>2016-09-26T07:52:14Z</time>
      </trkpt>
      <trkpt lat="45.75936" lon="4.82966">
        <ele>179</ele>
        <time>2016-09-26T07:52:34Z</time>
      </trkpt>
      <trkpt lat="45.75928" lon="4.82973">
        <ele>174</ele>
        <time>2016-09-26T07:52:42Z</time>
      </trkpt>
      <trkpt lat="45.75922" lon="4.82978">
        <ele>175</ele>
        <time>2016-09-26T07:52:46Z</time>
      </trkpt>
      <trkpt lat="45.75902" lon="4.82996">
        <ele>179</ele>
        <time>2016-09-26T07:53:00Z</time>
      </trkpt>
      <trkpt lat="45.75895" lon="4.82994">
        <ele>176</ele>
        <time>2016-09-26T07:53:08Z</time>
      </trkpt>
      <trkpt lat="45.75873" lon="4.82982">
        <ele>176</ele>
        <time>2016-09-26T07:53:21Z</time>
      </trkpt>
      <trkpt lat="45.7586" lon="4.83026">
        <ele>177</ele>
        <time>2016-09-26T07:53:31Z</time>
      </trkpt>
      <trkpt lat="45.75802" lon="4.82936">
        <ele>164</ele>
        <time>2016-09-26T07:54:12Z</time>
      </trkpt>
      <trkpt lat="45.75786" lon="4.82909">
        <ele>166</ele>
        <time>2016-09-26T07:54:22Z</time>
      </trkpt>
      <trkpt lat="45.75781" lon="4.82897">
        <ele>167</ele>
        <time>2016-09-26T07:54:27Z</time>
      </trkpt>
      <trkpt lat="45.75754" lon="4.82885">
        <ele>173</ele>
        <time>2016-09-26T07:54:48Z</time>
      </trkpt>
      <trkpt lat="45.75755" lon="4.82881">
        <ele>173</ele>
        <time>2016-09-26T07:54:53Z</time>
      </trkpt>
      <trkpt lat="45.75756" lon="4.8288">
        <ele>171</ele>
        <time>2016-09-26T07:55:01Z</time>
      </trkpt>
      <trkpt lat="45.75755" lon="4.82881">
        <ele>171</ele>
        <time>2016-09-26T07:55:11Z</time>
      </trkpt>
      <trkpt lat="45.75755" lon="4.82881">
        <ele>171</ele>
        <time>2016-09-26T07:55:22Z</time>
      </trkpt>
      <trkpt lat="45.75679" lon="4.82833">
        <ele>184</ele>
        <time>2016-09-26T07:55:47Z</time>
      </trkpt>
      <trkpt lat="45.75657" lon="4.82802">
        <ele>179</ele>
        <time>2016-09-26T07:56:05Z</time>
      </trkpt>
      <trkpt lat="45.75646" lon="4.82792">
        <ele>175</ele>
        <time>2016-09-26T07:56:16Z</time>
      </trkpt>
      <trkpt lat="45.75639" lon="4.82791">
        <ele>176</ele>
        <time>2016-09-26T07:56:20Z</time>
      </trkpt>
      <trkpt lat="45.75617" lon="4.82789">
        <ele>174</ele>
        <time>2016-09-26T07:56:31Z</time>
      </trkpt>
      <trkpt lat="45.75603" lon="4.82776">
        <ele>178</ele>
        <time>2016-09-26T07:56:39Z</time>
      </trkpt>
      <trkpt lat="45.75588" lon="4.82759">
        <ele>176</ele>
        <time>2016-09-26T07:56:52Z</time>
      </trkpt>
      <trkpt lat="45.75568" lon="4.82768">
        <ele>182</ele>
        <time>2016-09-26T07:57:11Z</time>
      </trkpt>
      <trkpt lat="45.75568" lon="4.82785">
        <ele>181</ele>
        <time>2016-09-26T07:57:18Z</time>
      </trkpt>
      <trkpt lat="45.75558" lon="4.82795">
        <ele>183</ele>
        <time>2016-09-26T07:57:24Z</time>
      </trkpt>
      <trkpt lat="45.75546" lon="4.82809">
        <ele>179</ele>
        <time>2016-09-26T07:57:34Z</time>
      </trkpt>
      <trkpt lat="45.75509" lon="4.82779">
        <ele>180</ele>
        <time>2016-09-26T07:57:54Z</time>
      </trkpt>
      <trkpt lat="45.75506" lon="4.82777">
        <ele>179</ele>
        <time>2016-09-26T07:57:56Z</time>
      </trkpt>
      <trkpt lat="45.75482" lon="4.82781">
        <ele>178</ele>
        <time>2016-09-26T07:58:12Z</time>
      </trkpt>
      <trkpt lat="45.75455" lon="4.82758">
        <ele>177</ele>
        <time>2016-09-26T07:58:26Z</time>
      </trkpt>
      <trkpt lat="45.7545" lon="4.82754">
        <ele>171</ele>
        <time>2016-09-26T07:58:30Z</time>
      </trkpt>
      <trkpt lat="45.7544" lon="4.82759">
        <ele>176</ele>
        <time>2016-09-26T07:58:40Z</time>
      </trkpt>
      <trkpt lat="45.75422" lon="4.82787">
        <ele>178</ele>
        <time>2016-09-26T07:59:01Z</time>
      </trkpt>
      <trkpt lat="45.7542" lon="4.82796">
        <ele>177</ele>
        <time>2016-09-26T07:59:05Z</time>
      </trkpt>
      <trkpt lat="45.75416" lon="4.82813">
        <ele>183</ele>
        <time>2016-09-26T07:59:13Z</time>
      </trkpt>
    </trkseg>
  </trk>
</gpx>